<?xml version="1.0" encoding="UTF-8" standalone="no" ?>
<gpx xmlns="http://www.topografix.com/GPX/1/1" xmlns:xsi="http://www.w3.org/2001/XMLSchema-instance" xsi:schemaLocation="http://www.topografix.com/GPX/1/1 http://www.topografix.com/GPX/1/1/gpx.xsd" version="1.1" creator="VisuGPX - https://www.visugpx.com">
  <metadata>
    <name>2009 LAGAHL</name>
    <desc><![CDATA[Lozère-Aveyron-Gard-Ardèche-Haute Loire]]></desc>
  </metadata>
  <trk>
    <name><![CDATA[G02]]></name>
    <trkseg>
      <trkpt lat="44.95659" lon="3.60759">
        <ele>1072</ele>
        <time>2009-07-12T11:50:28Z</time>
      </trkpt>
      <trkpt lat="44.95659" lon="3.60766">
        <ele>1076</ele>
        <time>2009-07-12T11:50:51Z</time>
      </trkpt>
      <trkpt lat="44.95659" lon="3.60766">
        <ele>1074</ele>
        <time>2009-07-12T11:50:54Z</time>
      </trkpt>
      <trkpt lat="44.95659" lon="3.60765">
        <ele>1077</ele>
        <time>2009-07-12T11:51:08Z</time>
      </trkpt>
      <trkpt lat="44.95659" lon="3.60765">
        <ele>1074</ele>
        <time>2009-07-12T11:51:14Z</time>
      </trkpt>
      <trkpt lat="44.95659" lon="3.60765">
        <ele>1075</ele>
        <time>2009-07-12T11:51:18Z</time>
      </trkpt>
      <trkpt lat="44.9566" lon="3.60766">
        <ele>1075</ele>
        <time>2009-07-12T11:52:11Z</time>
      </trkpt>
      <trkpt lat="44.95661" lon="3.60766">
        <ele>1075</ele>
        <time>2009-07-12T11:52:34Z</time>
      </trkpt>
      <trkpt lat="44.95662" lon="3.60767">
        <ele>1074</ele>
        <time>2009-07-12T11:53:19Z</time>
      </trkpt>
      <trkpt lat="44.95663" lon="3.60758">
        <ele>1073</ele>
        <time>2009-07-12T11:53:23Z</time>
      </trkpt>
      <trkpt lat="44.9566" lon="3.60729">
        <ele>1070</ele>
        <time>2009-07-12T11:53:29Z</time>
      </trkpt>
      <trkpt lat="44.95653" lon="3.60694">
        <ele>1069</ele>
        <time>2009-07-12T11:53:34Z</time>
      </trkpt>
      <trkpt lat="44.95652" lon="3.60686">
        <ele>1069</ele>
        <time>2009-07-12T11:53:35Z</time>
      </trkpt>
      <trkpt lat="44.95648" lon="3.60669">
        <ele>1067</ele>
        <time>2009-07-12T11:53:37Z</time>
      </trkpt>
      <trkpt lat="44.95635" lon="3.60636">
        <ele>1064</ele>
        <time>2009-07-12T11:53:41Z</time>
      </trkpt>
      <trkpt lat="44.95622" lon="3.60602">
        <ele>1064</ele>
        <time>2009-07-12T11:53:45Z</time>
      </trkpt>
      <trkpt lat="44.95615" lon="3.60573">
        <ele>1062</ele>
        <time>2009-07-12T11:53:48Z</time>
      </trkpt>
      <trkpt lat="44.95602" lon="3.60504">
        <ele>1059</ele>
        <time>2009-07-12T11:53:55Z</time>
      </trkpt>
      <trkpt lat="44.95599" lon="3.60481">
        <ele>1058</ele>
        <time>2009-07-12T11:53:57Z</time>
      </trkpt>
      <trkpt lat="44.95592" lon="3.60422">
        <ele>1056</ele>
        <time>2009-07-12T11:54:02Z</time>
      </trkpt>
      <trkpt lat="44.95577" lon="3.60352">
        <ele>1052</ele>
        <time>2009-07-12T11:54:08Z</time>
      </trkpt>
      <trkpt lat="44.9557" lon="3.60327">
        <ele>1050</ele>
        <time>2009-07-12T11:54:10Z</time>
      </trkpt>
      <trkpt lat="44.95562" lon="3.60287">
        <ele>1046</ele>
        <time>2009-07-12T11:54:13Z</time>
      </trkpt>
      <trkpt lat="44.95559" lon="3.60256">
        <ele>1043</ele>
        <time>2009-07-12T11:54:15Z</time>
      </trkpt>
      <trkpt lat="44.95559" lon="3.60223">
        <ele>1039</ele>
        <time>2009-07-12T11:54:17Z</time>
      </trkpt>
      <trkpt lat="44.95575" lon="3.60137">
        <ele>1042</ele>
        <time>2009-07-12T11:54:23Z</time>
      </trkpt>
      <trkpt lat="44.95585" lon="3.60109">
        <ele>1046</ele>
        <time>2009-07-12T11:54:26Z</time>
      </trkpt>
      <trkpt lat="44.95589" lon="3.60103">
        <ele>1046</ele>
        <time>2009-07-12T11:54:27Z</time>
      </trkpt>
      <trkpt lat="44.95604" lon="3.60083">
        <ele>1050</ele>
        <time>2009-07-12T11:54:33Z</time>
      </trkpt>
      <trkpt lat="44.95606" lon="3.60081">
        <ele>1051</ele>
        <time>2009-07-12T11:54:34Z</time>
      </trkpt>
      <trkpt lat="44.95625" lon="3.6004">
        <ele>1053</ele>
        <time>2009-07-12T11:54:50Z</time>
      </trkpt>
      <trkpt lat="44.95628" lon="3.59975">
        <ele>1055</ele>
        <time>2009-07-12T11:55:08Z</time>
      </trkpt>
      <trkpt lat="44.95622" lon="3.59928">
        <ele>1055</ele>
        <time>2009-07-12T11:55:19Z</time>
      </trkpt>
      <trkpt lat="44.95617" lon="3.5986">
        <ele>1054</ele>
        <time>2009-07-12T11:55:34Z</time>
      </trkpt>
      <trkpt lat="44.95612" lon="3.5978">
        <ele>1055</ele>
        <time>2009-07-12T11:55:52Z</time>
      </trkpt>
      <trkpt lat="44.95606" lon="3.59691">
        <ele>1057</ele>
        <time>2009-07-12T11:56:10Z</time>
      </trkpt>
      <trkpt lat="44.95605" lon="3.59595">
        <ele>1057</ele>
        <time>2009-07-12T11:56:29Z</time>
      </trkpt>
      <trkpt lat="44.95608" lon="3.59578">
        <ele>1056</ele>
        <time>2009-07-12T11:56:32Z</time>
      </trkpt>
      <trkpt lat="44.95616" lon="3.59543">
        <ele>1055</ele>
        <time>2009-07-12T11:56:38Z</time>
      </trkpt>
      <trkpt lat="44.95626" lon="3.59525">
        <ele>1051</ele>
        <time>2009-07-12T11:56:41Z</time>
      </trkpt>
      <trkpt lat="44.95645" lon="3.59512">
        <ele>1050</ele>
        <time>2009-07-12T11:56:44Z</time>
      </trkpt>
      <trkpt lat="44.95675" lon="3.595">
        <ele>1048</ele>
        <time>2009-07-12T11:56:48Z</time>
      </trkpt>
      <trkpt lat="44.95715" lon="3.59481">
        <ele>1049</ele>
        <time>2009-07-12T11:56:53Z</time>
      </trkpt>
      <trkpt lat="44.95736" lon="3.59476">
        <ele>1049</ele>
        <time>2009-07-12T11:56:56Z</time>
      </trkpt>
      <trkpt lat="44.95757" lon="3.59481">
        <ele>1051</ele>
        <time>2009-07-12T11:57:00Z</time>
      </trkpt>
      <trkpt lat="44.95763" lon="3.59486">
        <ele>1052</ele>
        <time>2009-07-12T11:57:02Z</time>
      </trkpt>
      <trkpt lat="44.95785" lon="3.59504">
        <ele>1054</ele>
        <time>2009-07-12T11:57:13Z</time>
      </trkpt>
      <trkpt lat="44.95789" lon="3.59496">
        <ele>1054</ele>
        <time>2009-07-12T11:57:18Z</time>
      </trkpt>
      <trkpt lat="44.95789" lon="3.59491">
        <ele>1055</ele>
        <time>2009-07-12T11:57:20Z</time>
      </trkpt>
      <trkpt lat="44.95788" lon="3.59484">
        <ele>1057</ele>
        <time>2009-07-12T11:57:23Z</time>
      </trkpt>
      <trkpt lat="44.95791" lon="3.59448">
        <ele>1058</ele>
        <time>2009-07-12T11:57:38Z</time>
      </trkpt>
      <trkpt lat="44.958" lon="3.59425">
        <ele>1060</ele>
        <time>2009-07-12T11:57:47Z</time>
      </trkpt>
      <trkpt lat="44.95812" lon="3.59386">
        <ele>1063</ele>
        <time>2009-07-12T11:58:03Z</time>
      </trkpt>
      <trkpt lat="44.95816" lon="3.5935">
        <ele>1066</ele>
        <time>2009-07-12T11:58:16Z</time>
      </trkpt>
      <trkpt lat="44.95812" lon="3.59307">
        <ele>1066</ele>
        <time>2009-07-12T11:58:30Z</time>
      </trkpt>
      <trkpt lat="44.95779" lon="3.59249">
        <ele>1065</ele>
        <time>2009-07-12T11:58:44Z</time>
      </trkpt>
      <trkpt lat="44.95731" lon="3.592">
        <ele>1066</ele>
        <time>2009-07-12T11:59:00Z</time>
      </trkpt>
      <trkpt lat="44.95679" lon="3.59148">
        <ele>1069</ele>
        <time>2009-07-12T11:59:20Z</time>
      </trkpt>
      <trkpt lat="44.9563" lon="3.59137">
        <ele>1071</ele>
        <time>2009-07-12T11:59:37Z</time>
      </trkpt>
      <trkpt lat="44.95593" lon="3.59105">
        <ele>1071</ele>
        <time>2009-07-12T11:59:52Z</time>
      </trkpt>
      <trkpt lat="44.9556" lon="3.5905">
        <ele>1070</ele>
        <time>2009-07-12T12:00:07Z</time>
      </trkpt>
      <trkpt lat="44.9552" lon="3.5901">
        <ele>1073</ele>
        <time>2009-07-12T12:00:24Z</time>
      </trkpt>
      <trkpt lat="44.9547" lon="3.5897">
        <ele>1075</ele>
        <time>2009-07-12T12:00:46Z</time>
      </trkpt>
      <trkpt lat="44.95442" lon="3.5894">
        <ele>1076</ele>
        <time>2009-07-12T12:01:00Z</time>
      </trkpt>
      <trkpt lat="44.9541" lon="3.58913">
        <ele>1079</ele>
        <time>2009-07-12T12:01:16Z</time>
      </trkpt>
      <trkpt lat="44.95377" lon="3.58871">
        <ele>1082</ele>
        <time>2009-07-12T12:01:35Z</time>
      </trkpt>
      <trkpt lat="44.95348" lon="3.58805">
        <ele>1081</ele>
        <time>2009-07-12T12:01:54Z</time>
      </trkpt>
      <trkpt lat="44.95336" lon="3.5878">
        <ele>1078</ele>
        <time>2009-07-12T12:02:01Z</time>
      </trkpt>
      <trkpt lat="44.95329" lon="3.58769">
        <ele>1081</ele>
        <time>2009-07-12T12:02:04Z</time>
      </trkpt>
      <trkpt lat="44.95327" lon="3.58765">
        <ele>1081</ele>
        <time>2009-07-12T12:02:05Z</time>
      </trkpt>
      <trkpt lat="44.95316" lon="3.58749">
        <ele>1079</ele>
        <time>2009-07-12T12:02:09Z</time>
      </trkpt>
      <trkpt lat="44.95283" lon="3.58721">
        <ele>1080</ele>
        <time>2009-07-12T12:02:20Z</time>
      </trkpt>
      <trkpt lat="44.95224" lon="3.58704">
        <ele>1080</ele>
        <time>2009-07-12T12:02:36Z</time>
      </trkpt>
      <trkpt lat="44.95166" lon="3.58668">
        <ele>1079</ele>
        <time>2009-07-12T12:02:53Z</time>
      </trkpt>
      <trkpt lat="44.95107" lon="3.58624">
        <ele>1078</ele>
        <time>2009-07-12T12:03:11Z</time>
      </trkpt>
      <trkpt lat="44.95067" lon="3.58594">
        <ele>1077</ele>
        <time>2009-07-12T12:03:25Z</time>
      </trkpt>
      <trkpt lat="44.95059" lon="3.58589">
        <ele>1077</ele>
        <time>2009-07-12T12:03:27Z</time>
      </trkpt>
      <trkpt lat="44.95023" lon="3.58553">
        <ele>1078</ele>
        <time>2009-07-12T12:03:40Z</time>
      </trkpt>
      <trkpt lat="44.95014" lon="3.58493">
        <ele>1080</ele>
        <time>2009-07-12T12:03:54Z</time>
      </trkpt>
      <trkpt lat="44.95004" lon="3.58449">
        <ele>1082</ele>
        <time>2009-07-12T12:04:06Z</time>
      </trkpt>
      <trkpt lat="44.94989" lon="3.58407">
        <ele>1085</ele>
        <time>2009-07-12T12:04:19Z</time>
      </trkpt>
      <trkpt lat="44.94976" lon="3.58346">
        <ele>1087</ele>
        <time>2009-07-12T12:04:35Z</time>
      </trkpt>
      <trkpt lat="44.94956" lon="3.58295">
        <ele>1085</ele>
        <time>2009-07-12T12:04:49Z</time>
      </trkpt>
      <trkpt lat="44.9495" lon="3.58285">
        <ele>1084</ele>
        <time>2009-07-12T12:04:51Z</time>
      </trkpt>
      <trkpt lat="44.94929" lon="3.5825">
        <ele>1084</ele>
        <time>2009-07-12T12:05:02Z</time>
      </trkpt>
      <trkpt lat="44.94914" lon="3.58209">
        <ele>1084</ele>
        <time>2009-07-12T12:05:13Z</time>
      </trkpt>
      <trkpt lat="44.94904" lon="3.58138">
        <ele>1087</ele>
        <time>2009-07-12T12:05:29Z</time>
      </trkpt>
      <trkpt lat="44.94893" lon="3.58072">
        <ele>1086</ele>
        <time>2009-07-12T12:05:42Z</time>
      </trkpt>
      <trkpt lat="44.94889" lon="3.58042">
        <ele>1086</ele>
        <time>2009-07-12T12:05:48Z</time>
      </trkpt>
      <trkpt lat="44.94892" lon="3.57951">
        <ele>1085</ele>
        <time>2009-07-12T12:06:03Z</time>
      </trkpt>
      <trkpt lat="44.94893" lon="3.57905">
        <ele>1085</ele>
        <time>2009-07-12T12:06:11Z</time>
      </trkpt>
      <trkpt lat="44.949" lon="3.57884">
        <ele>1085</ele>
        <time>2009-07-12T12:06:15Z</time>
      </trkpt>
      <trkpt lat="44.94935" lon="3.57831">
        <ele>1088</ele>
        <time>2009-07-12T12:06:29Z</time>
      </trkpt>
      <trkpt lat="44.94965" lon="3.57783">
        <ele>1090</ele>
        <time>2009-07-12T12:06:44Z</time>
      </trkpt>
      <trkpt lat="44.94998" lon="3.5774">
        <ele>1094</ele>
        <time>2009-07-12T12:06:58Z</time>
      </trkpt>
      <trkpt lat="44.95006" lon="3.57681">
        <ele>1095</ele>
        <time>2009-07-12T12:07:12Z</time>
      </trkpt>
      <trkpt lat="44.95006" lon="3.57614">
        <ele>1098</ele>
        <time>2009-07-12T12:07:28Z</time>
      </trkpt>
      <trkpt lat="44.95009" lon="3.5757">
        <ele>1101</ele>
        <time>2009-07-12T12:07:39Z</time>
      </trkpt>
      <trkpt lat="44.9501" lon="3.57566">
        <ele>1101</ele>
        <time>2009-07-12T12:07:40Z</time>
      </trkpt>
      <trkpt lat="44.95017" lon="3.57487">
        <ele>1103</ele>
        <time>2009-07-12T12:07:59Z</time>
      </trkpt>
      <trkpt lat="44.95033" lon="3.5739">
        <ele>1104</ele>
        <time>2009-07-12T12:08:22Z</time>
      </trkpt>
      <trkpt lat="44.95055" lon="3.57304">
        <ele>1106</ele>
        <time>2009-07-12T12:08:42Z</time>
      </trkpt>
      <trkpt lat="44.95086" lon="3.57216">
        <ele>1105</ele>
        <time>2009-07-12T12:09:00Z</time>
      </trkpt>
      <trkpt lat="44.95099" lon="3.5717">
        <ele>1101</ele>
        <time>2009-07-12T12:09:07Z</time>
      </trkpt>
      <trkpt lat="44.95109" lon="3.5713">
        <ele>1098</ele>
        <time>2009-07-12T12:09:12Z</time>
      </trkpt>
      <trkpt lat="44.95111" lon="3.57121">
        <ele>1099</ele>
        <time>2009-07-12T12:09:13Z</time>
      </trkpt>
      <trkpt lat="44.95146" lon="3.56993">
        <ele>1099</ele>
        <time>2009-07-12T12:09:30Z</time>
      </trkpt>
      <trkpt lat="44.95155" lon="3.56962">
        <ele>1100</ele>
        <time>2009-07-12T12:09:36Z</time>
      </trkpt>
      <trkpt lat="44.95177" lon="3.56921">
        <ele>1101</ele>
        <time>2009-07-12T12:09:45Z</time>
      </trkpt>
      <trkpt lat="44.95204" lon="3.56827">
        <ele>1102</ele>
        <time>2009-07-12T12:10:03Z</time>
      </trkpt>
      <trkpt lat="44.95206" lon="3.56822">
        <ele>1102</ele>
        <time>2009-07-12T12:10:04Z</time>
      </trkpt>
      <trkpt lat="44.95226" lon="3.56783">
        <ele>1102</ele>
        <time>2009-07-12T12:10:12Z</time>
      </trkpt>
      <trkpt lat="44.95238" lon="3.56767">
        <ele>1101</ele>
        <time>2009-07-12T12:10:16Z</time>
      </trkpt>
      <trkpt lat="44.95257" lon="3.56739">
        <ele>1098</ele>
        <time>2009-07-12T12:10:22Z</time>
      </trkpt>
      <trkpt lat="44.95262" lon="3.56727">
        <ele>1097</ele>
        <time>2009-07-12T12:10:24Z</time>
      </trkpt>
      <trkpt lat="44.9528" lon="3.56702">
        <ele>1094</ele>
        <time>2009-07-12T12:10:30Z</time>
      </trkpt>
      <trkpt lat="44.95289" lon="3.56691">
        <ele>1091</ele>
        <time>2009-07-12T12:10:33Z</time>
      </trkpt>
      <trkpt lat="44.95295" lon="3.56676">
        <ele>1088</ele>
        <time>2009-07-12T12:10:36Z</time>
      </trkpt>
      <trkpt lat="44.95304" lon="3.56663">
        <ele>1086</ele>
        <time>2009-07-12T12:10:39Z</time>
      </trkpt>
      <trkpt lat="44.9533" lon="3.5662">
        <ele>1081</ele>
        <time>2009-07-12T12:10:50Z</time>
      </trkpt>
      <trkpt lat="44.95352" lon="3.56594">
        <ele>1078</ele>
        <time>2009-07-12T12:10:59Z</time>
      </trkpt>
      <trkpt lat="44.95371" lon="3.56559">
        <ele>1076</ele>
        <time>2009-07-12T12:11:05Z</time>
      </trkpt>
      <trkpt lat="44.95398" lon="3.56498">
        <ele>1074</ele>
        <time>2009-07-12T12:11:13Z</time>
      </trkpt>
      <trkpt lat="44.95403" lon="3.56463">
        <ele>1071</ele>
        <time>2009-07-12T12:11:17Z</time>
      </trkpt>
      <trkpt lat="44.95405" lon="3.56411">
        <ele>1069</ele>
        <time>2009-07-12T12:11:23Z</time>
      </trkpt>
      <trkpt lat="44.95407" lon="3.56386">
        <ele>1067</ele>
        <time>2009-07-12T12:11:26Z</time>
      </trkpt>
      <trkpt lat="44.95411" lon="3.56371">
        <ele>1067</ele>
        <time>2009-07-12T12:11:28Z</time>
      </trkpt>
      <trkpt lat="44.95419" lon="3.56348">
        <ele>1065</ele>
        <time>2009-07-12T12:11:31Z</time>
      </trkpt>
      <trkpt lat="44.9543" lon="3.56314">
        <ele>1064</ele>
        <time>2009-07-12T12:11:35Z</time>
      </trkpt>
      <trkpt lat="44.95436" lon="3.56289">
        <ele>1063</ele>
        <time>2009-07-12T12:11:38Z</time>
      </trkpt>
      <trkpt lat="44.95452" lon="3.56251">
        <ele>1063</ele>
        <time>2009-07-12T12:11:43Z</time>
      </trkpt>
      <trkpt lat="44.95468" lon="3.56211">
        <ele>1062</ele>
        <time>2009-07-12T12:11:48Z</time>
      </trkpt>
      <trkpt lat="44.95484" lon="3.56173">
        <ele>1060</ele>
        <time>2009-07-12T12:11:53Z</time>
      </trkpt>
      <trkpt lat="44.9549" lon="3.56133">
        <ele>1059</ele>
        <time>2009-07-12T12:11:58Z</time>
      </trkpt>
      <trkpt lat="44.95492" lon="3.56111">
        <ele>1060</ele>
        <time>2009-07-12T12:12:01Z</time>
      </trkpt>
      <trkpt lat="44.95497" lon="3.56077">
        <ele>1059</ele>
        <time>2009-07-12T12:12:06Z</time>
      </trkpt>
      <trkpt lat="44.95501" lon="3.56064">
        <ele>1059</ele>
        <time>2009-07-12T12:12:08Z</time>
      </trkpt>
      <trkpt lat="44.95514" lon="3.56036">
        <ele>1059</ele>
        <time>2009-07-12T12:12:14Z</time>
      </trkpt>
      <trkpt lat="44.95519" lon="3.56024">
        <ele>1058</ele>
        <time>2009-07-12T12:12:16Z</time>
      </trkpt>
      <trkpt lat="44.95528" lon="3.56003">
        <ele>1056</ele>
        <time>2009-07-12T12:12:19Z</time>
      </trkpt>
      <trkpt lat="44.95535" lon="3.5599">
        <ele>1056</ele>
        <time>2009-07-12T12:12:21Z</time>
      </trkpt>
      <trkpt lat="44.95541" lon="3.55977">
        <ele>1055</ele>
        <time>2009-07-12T12:12:23Z</time>
      </trkpt>
      <trkpt lat="44.95555" lon="3.55951">
        <ele>1052</ele>
        <time>2009-07-12T12:12:27Z</time>
      </trkpt>
      <trkpt lat="44.95568" lon="3.55925">
        <ele>1049</ele>
        <time>2009-07-12T12:12:30Z</time>
      </trkpt>
      <trkpt lat="44.95578" lon="3.55909">
        <ele>1048</ele>
        <time>2009-07-12T12:12:32Z</time>
      </trkpt>
      <trkpt lat="44.95594" lon="3.55876">
        <ele>1047</ele>
        <time>2009-07-12T12:12:37Z</time>
      </trkpt>
      <trkpt lat="44.95612" lon="3.55852">
        <ele>1044</ele>
        <time>2009-07-12T12:12:43Z</time>
      </trkpt>
      <trkpt lat="44.95615" lon="3.55847">
        <ele>1043</ele>
        <time>2009-07-12T12:12:44Z</time>
      </trkpt>
      <trkpt lat="44.95621" lon="3.55836">
        <ele>1042</ele>
        <time>2009-07-12T12:12:46Z</time>
      </trkpt>
      <trkpt lat="44.95629" lon="3.55816">
        <ele>1038</ele>
        <time>2009-07-12T12:12:49Z</time>
      </trkpt>
      <trkpt lat="44.95654" lon="3.55777">
        <ele>1036</ele>
        <time>2009-07-12T12:12:58Z</time>
      </trkpt>
      <trkpt lat="44.95662" lon="3.55764">
        <ele>1032</ele>
        <time>2009-07-12T12:13:02Z</time>
      </trkpt>
      <trkpt lat="44.95665" lon="3.55758">
        <ele>1031</ele>
        <time>2009-07-12T12:13:03Z</time>
      </trkpt>
      <trkpt lat="44.95684" lon="3.55733">
        <ele>1031</ele>
        <time>2009-07-12T12:13:12Z</time>
      </trkpt>
      <trkpt lat="44.95685" lon="3.5573">
        <ele>1031</ele>
        <time>2009-07-12T12:13:27Z</time>
      </trkpt>
      <trkpt lat="44.95685" lon="3.55729">
        <ele>1030</ele>
        <time>2009-07-12T12:14:01Z</time>
      </trkpt>
      <trkpt lat="44.95684" lon="3.55729">
        <ele>1031</ele>
        <time>2009-07-12T12:14:30Z</time>
      </trkpt>
      <trkpt lat="44.95688" lon="3.55714">
        <ele>1030</ele>
        <time>2009-07-12T12:14:49Z</time>
      </trkpt>
      <trkpt lat="44.95697" lon="3.55699">
        <ele>1027</ele>
        <time>2009-07-12T12:14:54Z</time>
      </trkpt>
      <trkpt lat="44.95709" lon="3.55671">
        <ele>1022</ele>
        <time>2009-07-12T12:14:59Z</time>
      </trkpt>
      <trkpt lat="44.95716" lon="3.55649">
        <ele>1019</ele>
        <time>2009-07-12T12:15:02Z</time>
      </trkpt>
      <trkpt lat="44.95724" lon="3.55628">
        <ele>1016</ele>
        <time>2009-07-12T12:15:05Z</time>
      </trkpt>
      <trkpt lat="44.95729" lon="3.55615">
        <ele>1013</ele>
        <time>2009-07-12T12:15:07Z</time>
      </trkpt>
      <trkpt lat="44.95742" lon="3.55588">
        <ele>1009</ele>
        <time>2009-07-12T12:15:11Z</time>
      </trkpt>
      <trkpt lat="44.95745" lon="3.5558">
        <ele>1009</ele>
        <time>2009-07-12T12:15:12Z</time>
      </trkpt>
      <trkpt lat="44.95748" lon="3.55573">
        <ele>1008</ele>
        <time>2009-07-12T12:15:13Z</time>
      </trkpt>
      <trkpt lat="44.95755" lon="3.55539">
        <ele>1004</ele>
        <time>2009-07-12T12:15:17Z</time>
      </trkpt>
      <trkpt lat="44.95759" lon="3.5551">
        <ele>1001</ele>
        <time>2009-07-12T12:15:20Z</time>
      </trkpt>
      <trkpt lat="44.95761" lon="3.55483">
        <ele>998</ele>
        <time>2009-07-12T12:15:23Z</time>
      </trkpt>
      <trkpt lat="44.95761" lon="3.55465">
        <ele>997</ele>
        <time>2009-07-12T12:15:25Z</time>
      </trkpt>
      <trkpt lat="44.95768" lon="3.55432">
        <ele>991</ele>
        <time>2009-07-12T12:15:28Z</time>
      </trkpt>
      <trkpt lat="44.95777" lon="3.55406">
        <ele>985</ele>
        <time>2009-07-12T12:15:30Z</time>
      </trkpt>
      <trkpt lat="44.95787" lon="3.55379">
        <ele>984</ele>
        <time>2009-07-12T12:15:32Z</time>
      </trkpt>
      <trkpt lat="44.95813" lon="3.55299">
        <ele>982</ele>
        <time>2009-07-12T12:15:40Z</time>
      </trkpt>
      <trkpt lat="44.9583" lon="3.55256">
        <ele>979</ele>
        <time>2009-07-12T12:15:45Z</time>
      </trkpt>
      <trkpt lat="44.9584" lon="3.5524">
        <ele>975</ele>
        <time>2009-07-12T12:15:47Z</time>
      </trkpt>
      <trkpt lat="44.95855" lon="3.5522">
        <ele>971</ele>
        <time>2009-07-12T12:15:50Z</time>
      </trkpt>
      <trkpt lat="44.95869" lon="3.55198">
        <ele>968</ele>
        <time>2009-07-12T12:15:53Z</time>
      </trkpt>
      <trkpt lat="44.95876" lon="3.5518">
        <ele>965</ele>
        <time>2009-07-12T12:15:56Z</time>
      </trkpt>
      <trkpt lat="44.95877" lon="3.55154">
        <ele>965</ele>
        <time>2009-07-12T12:16:01Z</time>
      </trkpt>
      <trkpt lat="44.9587" lon="3.55128">
        <ele>964</ele>
        <time>2009-07-12T12:16:05Z</time>
      </trkpt>
      <trkpt lat="44.95845" lon="3.55044">
        <ele>966</ele>
        <time>2009-07-12T12:16:21Z</time>
      </trkpt>
      <trkpt lat="44.9587" lon="3.54987">
        <ele>966</ele>
        <time>2009-07-12T12:16:34Z</time>
      </trkpt>
      <trkpt lat="44.95902" lon="3.54928">
        <ele>968</ele>
        <time>2009-07-12T12:16:50Z</time>
      </trkpt>
      <trkpt lat="44.95912" lon="3.54914">
        <ele>970</ele>
        <time>2009-07-12T12:17:01Z</time>
      </trkpt>
      <trkpt lat="44.95913" lon="3.54914">
        <ele>969</ele>
        <time>2009-07-12T12:17:04Z</time>
      </trkpt>
      <trkpt lat="44.95914" lon="3.54915">
        <ele>972</ele>
        <time>2009-07-12T12:17:11Z</time>
      </trkpt>
      <trkpt lat="44.95915" lon="3.54918">
        <ele>971</ele>
        <time>2009-07-12T12:17:16Z</time>
      </trkpt>
      <trkpt lat="44.95911" lon="3.54926">
        <ele>970</ele>
        <time>2009-07-12T12:17:23Z</time>
      </trkpt>
      <trkpt lat="44.959" lon="3.54936">
        <ele>968</ele>
        <time>2009-07-12T12:17:30Z</time>
      </trkpt>
      <trkpt lat="44.95888" lon="3.54963">
        <ele>967</ele>
        <time>2009-07-12T12:17:40Z</time>
      </trkpt>
      <trkpt lat="44.95889" lon="3.54964">
        <ele>967</ele>
        <time>2009-07-12T12:18:03Z</time>
      </trkpt>
      <trkpt lat="44.95891" lon="3.54965">
        <ele>968</ele>
        <time>2009-07-12T12:18:58Z</time>
      </trkpt>
      <trkpt lat="44.95891" lon="3.5496">
        <ele>968</ele>
        <time>2009-07-12T12:19:28Z</time>
      </trkpt>
      <trkpt lat="44.9589" lon="3.54959">
        <ele>967</ele>
        <time>2009-07-12T12:19:37Z</time>
      </trkpt>
      <trkpt lat="44.95907" lon="3.54928">
        <ele>969</ele>
        <time>2009-07-12T12:19:49Z</time>
      </trkpt>
      <trkpt lat="44.95934" lon="3.5488">
        <ele>972</ele>
        <time>2009-07-12T12:20:04Z</time>
      </trkpt>
      <trkpt lat="44.95936" lon="3.54876">
        <ele>973</ele>
        <time>2009-07-12T12:20:05Z</time>
      </trkpt>
      <trkpt lat="44.95957" lon="3.54805">
        <ele>974</ele>
        <time>2009-07-12T12:20:23Z</time>
      </trkpt>
      <trkpt lat="44.95958" lon="3.54751">
        <ele>977</ele>
        <time>2009-07-12T12:20:37Z</time>
      </trkpt>
      <trkpt lat="44.95968" lon="3.54687">
        <ele>977</ele>
        <time>2009-07-12T12:20:53Z</time>
      </trkpt>
      <trkpt lat="44.95978" lon="3.54657">
        <ele>977</ele>
        <time>2009-07-12T12:21:05Z</time>
      </trkpt>
      <trkpt lat="44.9598" lon="3.54653">
        <ele>977</ele>
        <time>2009-07-12T12:21:08Z</time>
      </trkpt>
      <trkpt lat="44.95976" lon="3.54652">
        <ele>977</ele>
        <time>2009-07-12T12:21:12Z</time>
      </trkpt>
      <trkpt lat="44.95978" lon="3.54657">
        <ele>976</ele>
        <time>2009-07-12T12:21:20Z</time>
      </trkpt>
      <trkpt lat="44.95972" lon="3.54651">
        <ele>977</ele>
        <time>2009-07-12T12:21:40Z</time>
      </trkpt>
      <trkpt lat="44.9596" lon="3.54606">
        <ele>975</ele>
        <time>2009-07-12T12:21:51Z</time>
      </trkpt>
      <trkpt lat="44.95958" lon="3.54602">
        <ele>975</ele>
        <time>2009-07-12T12:21:52Z</time>
      </trkpt>
      <trkpt lat="44.95942" lon="3.54598">
        <ele>974</ele>
        <time>2009-07-12T12:22:01Z</time>
      </trkpt>
      <trkpt lat="44.95924" lon="3.54599">
        <ele>974</ele>
        <time>2009-07-12T12:22:14Z</time>
      </trkpt>
      <trkpt lat="44.95923" lon="3.54597">
        <ele>975</ele>
        <time>2009-07-12T12:22:26Z</time>
      </trkpt>
      <trkpt lat="44.95921" lon="3.54592">
        <ele>974</ele>
        <time>2009-07-12T12:22:53Z</time>
      </trkpt>
      <trkpt lat="44.95924" lon="3.54591">
        <ele>974</ele>
        <time>2009-07-12T12:23:10Z</time>
      </trkpt>
      <trkpt lat="44.95924" lon="3.54595">
        <ele>975</ele>
        <time>2009-07-12T12:25:14Z</time>
      </trkpt>
      <trkpt lat="44.95925" lon="3.54595">
        <ele>974</ele>
        <time>2009-07-12T12:25:56Z</time>
      </trkpt>
      <trkpt lat="44.95932" lon="3.546">
        <ele>976</ele>
        <time>2009-07-12T12:27:34Z</time>
      </trkpt>
      <trkpt lat="44.95929" lon="3.54604">
        <ele>975</ele>
        <time>2009-07-12T12:28:09Z</time>
      </trkpt>
      <trkpt lat="44.95925" lon="3.54599">
        <ele>976</ele>
        <time>2009-07-12T12:28:41Z</time>
      </trkpt>
      <trkpt lat="44.95917" lon="3.54591">
        <ele>976</ele>
        <time>2009-07-12T12:29:46Z</time>
      </trkpt>
      <trkpt lat="44.95917" lon="3.54588">
        <ele>975</ele>
        <time>2009-07-12T12:30:01Z</time>
      </trkpt>
      <trkpt lat="44.95919" lon="3.54575">
        <ele>974</ele>
        <time>2009-07-12T12:30:05Z</time>
      </trkpt>
      <trkpt lat="44.95923" lon="3.54573">
        <ele>973</ele>
        <time>2009-07-12T12:30:08Z</time>
      </trkpt>
      <trkpt lat="44.95916" lon="3.54556">
        <ele>971</ele>
        <time>2009-07-12T12:30:15Z</time>
      </trkpt>
      <trkpt lat="44.95913" lon="3.54552">
        <ele>971</ele>
        <time>2009-07-12T12:30:16Z</time>
      </trkpt>
      <trkpt lat="44.95907" lon="3.54544">
        <ele>970</ele>
        <time>2009-07-12T12:30:18Z</time>
      </trkpt>
      <trkpt lat="44.95898" lon="3.54522">
        <ele>968</ele>
        <time>2009-07-12T12:30:22Z</time>
      </trkpt>
      <trkpt lat="44.95889" lon="3.54488">
        <ele>967</ele>
        <time>2009-07-12T12:30:26Z</time>
      </trkpt>
      <trkpt lat="44.95882" lon="3.54452">
        <ele>964</ele>
        <time>2009-07-12T12:30:30Z</time>
      </trkpt>
      <trkpt lat="44.95864" lon="3.54419">
        <ele>963</ele>
        <time>2009-07-12T12:30:35Z</time>
      </trkpt>
      <trkpt lat="44.95855" lon="3.54406">
        <ele>962</ele>
        <time>2009-07-12T12:30:37Z</time>
      </trkpt>
      <trkpt lat="44.95846" lon="3.54391">
        <ele>959</ele>
        <time>2009-07-12T12:30:39Z</time>
      </trkpt>
      <trkpt lat="44.95833" lon="3.54366">
        <ele>955</ele>
        <time>2009-07-12T12:30:42Z</time>
      </trkpt>
      <trkpt lat="44.95829" lon="3.54356">
        <ele>955</ele>
        <time>2009-07-12T12:30:43Z</time>
      </trkpt>
      <trkpt lat="44.95795" lon="3.54282">
        <ele>956</ele>
        <time>2009-07-12T12:30:51Z</time>
      </trkpt>
      <trkpt lat="44.9576" lon="3.5424">
        <ele>952</ele>
        <time>2009-07-12T12:30:57Z</time>
      </trkpt>
      <trkpt lat="44.95753" lon="3.54234">
        <ele>949</ele>
        <time>2009-07-12T12:30:58Z</time>
      </trkpt>
      <trkpt lat="44.9571" lon="3.54208">
        <ele>946</ele>
        <time>2009-07-12T12:31:03Z</time>
      </trkpt>
      <trkpt lat="44.95675" lon="3.54187">
        <ele>942</ele>
        <time>2009-07-12T12:31:07Z</time>
      </trkpt>
      <trkpt lat="44.95629" lon="3.54152">
        <ele>941</ele>
        <time>2009-07-12T12:31:13Z</time>
      </trkpt>
      <trkpt lat="44.95603" lon="3.54097">
        <ele>941</ele>
        <time>2009-07-12T12:31:19Z</time>
      </trkpt>
      <trkpt lat="44.95591" lon="3.54003">
        <ele>942</ele>
        <time>2009-07-12T12:31:31Z</time>
      </trkpt>
      <trkpt lat="44.95572" lon="3.53924">
        <ele>941</ele>
        <time>2009-07-12T12:31:43Z</time>
      </trkpt>
      <trkpt lat="44.95555" lon="3.53867">
        <ele>942</ele>
        <time>2009-07-12T12:31:54Z</time>
      </trkpt>
      <trkpt lat="44.95545" lon="3.53859">
        <ele>943</ele>
        <time>2009-07-12T12:31:57Z</time>
      </trkpt>
      <trkpt lat="44.95537" lon="3.53859">
        <ele>942</ele>
        <time>2009-07-12T12:31:59Z</time>
      </trkpt>
      <trkpt lat="44.95462" lon="3.53839">
        <ele>941</ele>
        <time>2009-07-12T12:32:16Z</time>
      </trkpt>
      <trkpt lat="44.95436" lon="3.53824">
        <ele>942</ele>
        <time>2009-07-12T12:32:22Z</time>
      </trkpt>
      <trkpt lat="44.95384" lon="3.53768">
        <ele>944</ele>
        <time>2009-07-12T12:32:37Z</time>
      </trkpt>
      <trkpt lat="44.95329" lon="3.53727">
        <ele>945</ele>
        <time>2009-07-12T12:32:54Z</time>
      </trkpt>
      <trkpt lat="44.95284" lon="3.53709">
        <ele>944</ele>
        <time>2009-07-12T12:33:08Z</time>
      </trkpt>
      <trkpt lat="44.9525" lon="3.53658">
        <ele>945</ele>
        <time>2009-07-12T12:33:23Z</time>
      </trkpt>
      <trkpt lat="44.95223" lon="3.53572">
        <ele>949</ele>
        <time>2009-07-12T12:33:42Z</time>
      </trkpt>
      <trkpt lat="44.9518" lon="3.53479">
        <ele>949</ele>
        <time>2009-07-12T12:34:02Z</time>
      </trkpt>
      <trkpt lat="44.95163" lon="3.53441">
        <ele>950</ele>
        <time>2009-07-12T12:34:10Z</time>
      </trkpt>
      <trkpt lat="44.95141" lon="3.53403">
        <ele>948</ele>
        <time>2009-07-12T12:34:18Z</time>
      </trkpt>
      <trkpt lat="44.95127" lon="3.53374">
        <ele>948</ele>
        <time>2009-07-12T12:34:24Z</time>
      </trkpt>
      <trkpt lat="44.95117" lon="3.53355">
        <ele>949</ele>
        <time>2009-07-12T12:34:28Z</time>
      </trkpt>
      <trkpt lat="44.95103" lon="3.53333">
        <ele>949</ele>
        <time>2009-07-12T12:34:33Z</time>
      </trkpt>
      <trkpt lat="44.95096" lon="3.53326">
        <ele>949</ele>
        <time>2009-07-12T12:34:35Z</time>
      </trkpt>
      <trkpt lat="44.95079" lon="3.53309">
        <ele>949</ele>
        <time>2009-07-12T12:34:40Z</time>
      </trkpt>
      <trkpt lat="44.95056" lon="3.53292">
        <ele>949</ele>
        <time>2009-07-12T12:34:46Z</time>
      </trkpt>
      <trkpt lat="44.95041" lon="3.53283">
        <ele>951</ele>
        <time>2009-07-12T12:34:50Z</time>
      </trkpt>
      <trkpt lat="44.95029" lon="3.53277">
        <ele>951</ele>
        <time>2009-07-12T12:34:53Z</time>
      </trkpt>
      <trkpt lat="44.95008" lon="3.53255">
        <ele>951</ele>
        <time>2009-07-12T12:35:00Z</time>
      </trkpt>
      <trkpt lat="44.94926" lon="3.53251">
        <ele>953</ele>
        <time>2009-07-12T12:35:20Z</time>
      </trkpt>
      <trkpt lat="44.94865" lon="3.53229">
        <ele>956</ele>
        <time>2009-07-12T12:35:40Z</time>
      </trkpt>
      <trkpt lat="44.94838" lon="3.53216">
        <ele>959</ele>
        <time>2009-07-12T12:35:50Z</time>
      </trkpt>
      <trkpt lat="44.94802" lon="3.53188">
        <ele>962</ele>
        <time>2009-07-12T12:36:06Z</time>
      </trkpt>
      <trkpt lat="44.94771" lon="3.53161">
        <ele>966</ele>
        <time>2009-07-12T12:36:21Z</time>
      </trkpt>
      <trkpt lat="44.94767" lon="3.53158">
        <ele>966</ele>
        <time>2009-07-12T12:36:23Z</time>
      </trkpt>
      <trkpt lat="44.94723" lon="3.53127">
        <ele>969</ele>
        <time>2009-07-12T12:36:44Z</time>
      </trkpt>
      <trkpt lat="44.94719" lon="3.53124">
        <ele>970</ele>
        <time>2009-07-12T12:36:46Z</time>
      </trkpt>
      <trkpt lat="44.94668" lon="3.5309">
        <ele>973</ele>
        <time>2009-07-12T12:37:09Z</time>
      </trkpt>
      <trkpt lat="44.94661" lon="3.53086">
        <ele>974</ele>
        <time>2009-07-12T12:37:12Z</time>
      </trkpt>
      <trkpt lat="44.94623" lon="3.53059">
        <ele>977</ele>
        <time>2009-07-12T12:37:30Z</time>
      </trkpt>
      <trkpt lat="44.94621" lon="3.53057">
        <ele>977</ele>
        <time>2009-07-12T12:37:31Z</time>
      </trkpt>
      <trkpt lat="44.94585" lon="3.53026">
        <ele>980</ele>
        <time>2009-07-12T12:37:49Z</time>
      </trkpt>
      <trkpt lat="44.94532" lon="3.53006">
        <ele>982</ele>
        <time>2009-07-12T12:38:12Z</time>
      </trkpt>
      <trkpt lat="44.94495" lon="3.52982">
        <ele>985</ele>
        <time>2009-07-12T12:38:31Z</time>
      </trkpt>
      <trkpt lat="44.9448" lon="3.52963">
        <ele>988</ele>
        <time>2009-07-12T12:38:41Z</time>
      </trkpt>
      <trkpt lat="44.9446" lon="3.52924">
        <ele>991</ele>
        <time>2009-07-12T12:38:57Z</time>
      </trkpt>
      <trkpt lat="44.94421" lon="3.52876">
        <ele>993</ele>
        <time>2009-07-12T12:39:18Z</time>
      </trkpt>
      <trkpt lat="44.94377" lon="3.52825">
        <ele>995</ele>
        <time>2009-07-12T12:39:41Z</time>
      </trkpt>
      <trkpt lat="44.94343" lon="3.52798">
        <ele>998</ele>
        <time>2009-07-12T12:39:56Z</time>
      </trkpt>
      <trkpt lat="44.94309" lon="3.52797">
        <ele>1002</ele>
        <time>2009-07-12T12:40:10Z</time>
      </trkpt>
      <trkpt lat="44.94265" lon="3.52815">
        <ele>1003</ele>
        <time>2009-07-12T12:40:29Z</time>
      </trkpt>
      <trkpt lat="44.94221" lon="3.52834">
        <ele>1006</ele>
        <time>2009-07-12T12:40:47Z</time>
      </trkpt>
      <trkpt lat="44.94218" lon="3.52836">
        <ele>1006</ele>
        <time>2009-07-12T12:40:48Z</time>
      </trkpt>
      <trkpt lat="44.94183" lon="3.5285">
        <ele>1006</ele>
        <time>2009-07-12T12:41:01Z</time>
      </trkpt>
      <trkpt lat="44.94137" lon="3.52858">
        <ele>1005</ele>
        <time>2009-07-12T12:41:16Z</time>
      </trkpt>
      <trkpt lat="44.94118" lon="3.52851">
        <ele>1002</ele>
        <time>2009-07-12T12:41:20Z</time>
      </trkpt>
      <trkpt lat="44.94091" lon="3.52846">
        <ele>1001</ele>
        <time>2009-07-12T12:41:24Z</time>
      </trkpt>
      <trkpt lat="44.9403" lon="3.52873">
        <ele>1002</ele>
        <time>2009-07-12T12:41:35Z</time>
      </trkpt>
      <trkpt lat="44.94001" lon="3.52917">
        <ele>1004</ele>
        <time>2009-07-12T12:41:47Z</time>
      </trkpt>
      <trkpt lat="44.93991" lon="3.52954">
        <ele>1007</ele>
        <time>2009-07-12T12:41:56Z</time>
      </trkpt>
      <trkpt lat="44.93984" lon="3.52967">
        <ele>1011</ele>
        <time>2009-07-12T12:42:01Z</time>
      </trkpt>
      <trkpt lat="44.93954" lon="3.52986">
        <ele>1015</ele>
        <time>2009-07-12T12:42:17Z</time>
      </trkpt>
      <trkpt lat="44.93931" lon="3.52991">
        <ele>1018</ele>
        <time>2009-07-12T12:42:28Z</time>
      </trkpt>
      <trkpt lat="44.93895" lon="3.5298">
        <ele>1019</ele>
        <time>2009-07-12T12:42:44Z</time>
      </trkpt>
      <trkpt lat="44.93858" lon="3.52965">
        <ele>1020</ele>
        <time>2009-07-12T12:43:00Z</time>
      </trkpt>
      <trkpt lat="44.93842" lon="3.52949">
        <ele>1021</ele>
        <time>2009-07-12T12:43:08Z</time>
      </trkpt>
      <trkpt lat="44.93815" lon="3.52909">
        <ele>1025</ele>
        <time>2009-07-12T12:43:22Z</time>
      </trkpt>
      <trkpt lat="44.93797" lon="3.52881">
        <ele>1026</ele>
        <time>2009-07-12T12:43:31Z</time>
      </trkpt>
      <trkpt lat="44.9377" lon="3.52853">
        <ele>1026</ele>
        <time>2009-07-12T12:43:44Z</time>
      </trkpt>
      <trkpt lat="44.93718" lon="3.52857">
        <ele>1028</ele>
        <time>2009-07-12T12:44:02Z</time>
      </trkpt>
      <trkpt lat="44.93682" lon="3.52843">
        <ele>1030</ele>
        <time>2009-07-12T12:44:14Z</time>
      </trkpt>
      <trkpt lat="44.93661" lon="3.52811">
        <ele>1029</ele>
        <time>2009-07-12T12:44:22Z</time>
      </trkpt>
      <trkpt lat="44.93616" lon="3.52725">
        <ele>1030</ele>
        <time>2009-07-12T12:44:42Z</time>
      </trkpt>
      <trkpt lat="44.93595" lon="3.52686">
        <ele>1031</ele>
        <time>2009-07-12T12:44:51Z</time>
      </trkpt>
      <trkpt lat="44.93566" lon="3.52617">
        <ele>1033</ele>
        <time>2009-07-12T12:45:07Z</time>
      </trkpt>
      <trkpt lat="44.93557" lon="3.52582">
        <ele>1034</ele>
        <time>2009-07-12T12:45:14Z</time>
      </trkpt>
      <trkpt lat="44.93553" lon="3.52562">
        <ele>1032</ele>
        <time>2009-07-12T12:45:18Z</time>
      </trkpt>
      <trkpt lat="44.93533" lon="3.52507">
        <ele>1032</ele>
        <time>2009-07-12T12:45:30Z</time>
      </trkpt>
      <trkpt lat="44.93491" lon="3.52444">
        <ele>1033</ele>
        <time>2009-07-12T12:45:46Z</time>
      </trkpt>
      <trkpt lat="44.93488" lon="3.52441">
        <ele>1033</ele>
        <time>2009-07-12T12:45:47Z</time>
      </trkpt>
      <trkpt lat="44.93471" lon="3.52434">
        <ele>1032</ele>
        <time>2009-07-12T12:45:51Z</time>
      </trkpt>
      <trkpt lat="44.93406" lon="3.52447">
        <ele>1031</ele>
        <time>2009-07-12T12:46:06Z</time>
      </trkpt>
      <trkpt lat="44.93352" lon="3.52448">
        <ele>1031</ele>
        <time>2009-07-12T12:46:19Z</time>
      </trkpt>
      <trkpt lat="44.93331" lon="3.52447">
        <ele>1032</ele>
        <time>2009-07-12T12:46:24Z</time>
      </trkpt>
      <trkpt lat="44.93265" lon="3.52446">
        <ele>1035</ele>
        <time>2009-07-12T12:46:42Z</time>
      </trkpt>
      <trkpt lat="44.93228" lon="3.52431">
        <ele>1038</ele>
        <time>2009-07-12T12:46:54Z</time>
      </trkpt>
      <trkpt lat="44.93174" lon="3.52417">
        <ele>1040</ele>
        <time>2009-07-12T12:47:13Z</time>
      </trkpt>
      <trkpt lat="44.93138" lon="3.52412">
        <ele>1043</ele>
        <time>2009-07-12T12:47:27Z</time>
      </trkpt>
      <trkpt lat="44.93115" lon="3.52398">
        <ele>1047</ele>
        <time>2009-07-12T12:47:38Z</time>
      </trkpt>
      <trkpt lat="44.93094" lon="3.52354">
        <ele>1048</ele>
        <time>2009-07-12T12:47:54Z</time>
      </trkpt>
      <trkpt lat="44.93052" lon="3.52327">
        <ele>1049</ele>
        <time>2009-07-12T12:48:10Z</time>
      </trkpt>
      <trkpt lat="44.93027" lon="3.52308">
        <ele>1048</ele>
        <time>2009-07-12T12:48:18Z</time>
      </trkpt>
      <trkpt lat="44.92994" lon="3.52307">
        <ele>1047</ele>
        <time>2009-07-12T12:48:25Z</time>
      </trkpt>
      <trkpt lat="44.92932" lon="3.52279">
        <ele>1048</ele>
        <time>2009-07-12T12:48:42Z</time>
      </trkpt>
      <trkpt lat="44.92871" lon="3.52241">
        <ele>1049</ele>
        <time>2009-07-12T12:49:01Z</time>
      </trkpt>
      <trkpt lat="44.9285" lon="3.52232">
        <ele>1052</ele>
        <time>2009-07-12T12:49:08Z</time>
      </trkpt>
      <trkpt lat="44.92817" lon="3.52216">
        <ele>1055</ele>
        <time>2009-07-12T12:49:22Z</time>
      </trkpt>
      <trkpt lat="44.92804" lon="3.52186">
        <ele>1057</ele>
        <time>2009-07-12T12:49:32Z</time>
      </trkpt>
      <trkpt lat="44.92777" lon="3.52141">
        <ele>1058</ele>
        <time>2009-07-12T12:49:49Z</time>
      </trkpt>
      <trkpt lat="44.92749" lon="3.52122">
        <ele>1061</ele>
        <time>2009-07-12T12:50:02Z</time>
      </trkpt>
      <trkpt lat="44.9272" lon="3.52107">
        <ele>1064</ele>
        <time>2009-07-12T12:50:15Z</time>
      </trkpt>
      <trkpt lat="44.9268" lon="3.5208">
        <ele>1066</ele>
        <time>2009-07-12T12:50:34Z</time>
      </trkpt>
      <trkpt lat="44.92648" lon="3.52059">
        <ele>1069</ele>
        <time>2009-07-12T12:50:50Z</time>
      </trkpt>
      <trkpt lat="44.92626" lon="3.52016">
        <ele>1070</ele>
        <time>2009-07-12T12:51:05Z</time>
      </trkpt>
      <trkpt lat="44.92612" lon="3.51991">
        <ele>1073</ele>
        <time>2009-07-12T12:51:13Z</time>
      </trkpt>
      <trkpt lat="44.92579" lon="3.5194">
        <ele>1076</ele>
        <time>2009-07-12T12:51:31Z</time>
      </trkpt>
      <trkpt lat="44.92542" lon="3.51905">
        <ele>1077</ele>
        <time>2009-07-12T12:51:47Z</time>
      </trkpt>
      <trkpt lat="44.92502" lon="3.51854">
        <ele>1079</ele>
        <time>2009-07-12T12:52:07Z</time>
      </trkpt>
      <trkpt lat="44.92468" lon="3.51805">
        <ele>1080</ele>
        <time>2009-07-12T12:52:21Z</time>
      </trkpt>
      <trkpt lat="44.92441" lon="3.51769">
        <ele>1079</ele>
        <time>2009-07-12T12:52:33Z</time>
      </trkpt>
      <trkpt lat="44.92414" lon="3.51726">
        <ele>1077</ele>
        <time>2009-07-12T12:52:45Z</time>
      </trkpt>
      <trkpt lat="44.92401" lon="3.51703">
        <ele>1077</ele>
        <time>2009-07-12T12:52:54Z</time>
      </trkpt>
      <trkpt lat="44.92403" lon="3.51701">
        <ele>1077</ele>
        <time>2009-07-12T12:53:30Z</time>
      </trkpt>
      <trkpt lat="44.92399" lon="3.51705">
        <ele>1077</ele>
        <time>2009-07-12T12:54:25Z</time>
      </trkpt>
      <trkpt lat="44.92397" lon="3.51706">
        <ele>1077</ele>
        <time>2009-07-12T12:54:41Z</time>
      </trkpt>
      <trkpt lat="44.92399" lon="3.51703">
        <ele>1077</ele>
        <time>2009-07-12T12:55:23Z</time>
      </trkpt>
      <trkpt lat="44.92399" lon="3.51703">
        <ele>1077</ele>
        <time>2009-07-12T12:56:03Z</time>
      </trkpt>
      <trkpt lat="44.92399" lon="3.51701">
        <ele>1077</ele>
        <time>2009-07-12T12:56:24Z</time>
      </trkpt>
      <trkpt lat="44.92393" lon="3.51679">
        <ele>1077</ele>
        <time>2009-07-12T12:56:32Z</time>
      </trkpt>
      <trkpt lat="44.92387" lon="3.51665">
        <ele>1076</ele>
        <time>2009-07-12T12:56:35Z</time>
      </trkpt>
      <trkpt lat="44.92381" lon="3.51657">
        <ele>1076</ele>
        <time>2009-07-12T12:56:37Z</time>
      </trkpt>
      <trkpt lat="44.92373" lon="3.51653">
        <ele>1075</ele>
        <time>2009-07-12T12:56:39Z</time>
      </trkpt>
      <trkpt lat="44.92327" lon="3.51608">
        <ele>1072</ele>
        <time>2009-07-12T12:56:53Z</time>
      </trkpt>
      <trkpt lat="44.92319" lon="3.51591">
        <ele>1071</ele>
        <time>2009-07-12T12:56:56Z</time>
      </trkpt>
      <trkpt lat="44.92284" lon="3.51505">
        <ele>1069</ele>
        <time>2009-07-12T12:57:08Z</time>
      </trkpt>
      <trkpt lat="44.92249" lon="3.5143">
        <ele>1065</ele>
        <time>2009-07-12T12:57:17Z</time>
      </trkpt>
      <trkpt lat="44.92241" lon="3.51412">
        <ele>1065</ele>
        <time>2009-07-12T12:57:19Z</time>
      </trkpt>
      <trkpt lat="44.92208" lon="3.51303">
        <ele>1064</ele>
        <time>2009-07-12T12:57:32Z</time>
      </trkpt>
      <trkpt lat="44.92204" lon="3.51289">
        <ele>1064</ele>
        <time>2009-07-12T12:57:34Z</time>
      </trkpt>
      <trkpt lat="44.92199" lon="3.51261">
        <ele>1065</ele>
        <time>2009-07-12T12:57:39Z</time>
      </trkpt>
      <trkpt lat="44.92183" lon="3.51198">
        <ele>1066</ele>
        <time>2009-07-12T12:57:52Z</time>
      </trkpt>
      <trkpt lat="44.92165" lon="3.51129">
        <ele>1068</ele>
        <time>2009-07-12T12:58:07Z</time>
      </trkpt>
      <trkpt lat="44.92149" lon="3.51061">
        <ele>1070</ele>
        <time>2009-07-12T12:58:23Z</time>
      </trkpt>
      <trkpt lat="44.92126" lon="3.50991">
        <ele>1072</ele>
        <time>2009-07-12T12:58:40Z</time>
      </trkpt>
      <trkpt lat="44.92099" lon="3.50931">
        <ele>1070</ele>
        <time>2009-07-12T12:58:54Z</time>
      </trkpt>
      <trkpt lat="44.92094" lon="3.50921">
        <ele>1070</ele>
        <time>2009-07-12T12:58:56Z</time>
      </trkpt>
      <trkpt lat="44.92086" lon="3.50905">
        <ele>1068</ele>
        <time>2009-07-12T12:58:59Z</time>
      </trkpt>
      <trkpt lat="44.92064" lon="3.5085">
        <ele>1067</ele>
        <time>2009-07-12T12:59:08Z</time>
      </trkpt>
      <trkpt lat="44.92048" lon="3.50808">
        <ele>1066</ele>
        <time>2009-07-12T12:59:15Z</time>
      </trkpt>
      <trkpt lat="44.92039" lon="3.50781">
        <ele>1065</ele>
        <time>2009-07-12T12:59:19Z</time>
      </trkpt>
      <trkpt lat="44.92022" lon="3.50746">
        <ele>1062</ele>
        <time>2009-07-12T12:59:24Z</time>
      </trkpt>
      <trkpt lat="44.92006" lon="3.507">
        <ele>1059</ele>
        <time>2009-07-12T12:59:29Z</time>
      </trkpt>
      <trkpt lat="44.92003" lon="3.50692">
        <ele>1059</ele>
        <time>2009-07-12T12:59:30Z</time>
      </trkpt>
      <trkpt lat="44.91968" lon="3.50632">
        <ele>1058</ele>
        <time>2009-07-12T12:59:44Z</time>
      </trkpt>
      <trkpt lat="44.91965" lon="3.50628">
        <ele>1058</ele>
        <time>2009-07-12T12:59:45Z</time>
      </trkpt>
      <trkpt lat="44.91959" lon="3.5062">
        <ele>1056</ele>
        <time>2009-07-12T12:59:47Z</time>
      </trkpt>
      <trkpt lat="44.91933" lon="3.50599">
        <ele>1054</ele>
        <time>2009-07-12T12:59:54Z</time>
      </trkpt>
      <trkpt lat="44.91915" lon="3.5056">
        <ele>1053</ele>
        <time>2009-07-12T13:00:00Z</time>
      </trkpt>
      <trkpt lat="44.91908" lon="3.50525">
        <ele>1052</ele>
        <time>2009-07-12T13:00:04Z</time>
      </trkpt>
      <trkpt lat="44.91876" lon="3.50481">
        <ele>1053</ele>
        <time>2009-07-12T13:00:12Z</time>
      </trkpt>
      <trkpt lat="44.91867" lon="3.5048">
        <ele>1053</ele>
        <time>2009-07-12T13:00:14Z</time>
      </trkpt>
      <trkpt lat="44.91828" lon="3.50495">
        <ele>1054</ele>
        <time>2009-07-12T13:00:25Z</time>
      </trkpt>
      <trkpt lat="44.91806" lon="3.50518">
        <ele>1057</ele>
        <time>2009-07-12T13:00:35Z</time>
      </trkpt>
      <trkpt lat="44.91797" lon="3.50533">
        <ele>1058</ele>
        <time>2009-07-12T13:00:41Z</time>
      </trkpt>
      <trkpt lat="44.91776" lon="3.50559">
        <ele>1061</ele>
        <time>2009-07-12T13:00:54Z</time>
      </trkpt>
      <trkpt lat="44.91753" lon="3.50559">
        <ele>1065</ele>
        <time>2009-07-12T13:01:09Z</time>
      </trkpt>
      <trkpt lat="44.91743" lon="3.50533">
        <ele>1066</ele>
        <time>2009-07-12T13:01:23Z</time>
      </trkpt>
      <trkpt lat="44.91733" lon="3.50491">
        <ele>1068</ele>
        <time>2009-07-12T13:01:39Z</time>
      </trkpt>
      <trkpt lat="44.91727" lon="3.50469">
        <ele>1071</ele>
        <time>2009-07-12T13:01:48Z</time>
      </trkpt>
      <trkpt lat="44.91714" lon="3.50433">
        <ele>1073</ele>
        <time>2009-07-12T13:02:05Z</time>
      </trkpt>
      <trkpt lat="44.91691" lon="3.50411">
        <ele>1076</ele>
        <time>2009-07-12T13:02:20Z</time>
      </trkpt>
      <trkpt lat="44.91652" lon="3.50408">
        <ele>1079</ele>
        <time>2009-07-12T13:02:36Z</time>
      </trkpt>
      <trkpt lat="44.91634" lon="3.50411">
        <ele>1079</ele>
        <time>2009-07-12T13:02:43Z</time>
      </trkpt>
      <trkpt lat="44.91582" lon="3.50434">
        <ele>1080</ele>
        <time>2009-07-12T13:03:02Z</time>
      </trkpt>
      <trkpt lat="44.91518" lon="3.50465">
        <ele>1083</ele>
        <time>2009-07-12T13:03:23Z</time>
      </trkpt>
      <trkpt lat="44.91473" lon="3.50453">
        <ele>1086</ele>
        <time>2009-07-12T13:03:39Z</time>
      </trkpt>
      <trkpt lat="44.91434" lon="3.50433">
        <ele>1089</ele>
        <time>2009-07-12T13:03:56Z</time>
      </trkpt>
      <trkpt lat="44.91381" lon="3.50412">
        <ele>1092</ele>
        <time>2009-07-12T13:04:18Z</time>
      </trkpt>
      <trkpt lat="44.91351" lon="3.50397">
        <ele>1094</ele>
        <time>2009-07-12T13:04:30Z</time>
      </trkpt>
      <trkpt lat="44.91315" lon="3.50388">
        <ele>1096</ele>
        <time>2009-07-12T13:04:44Z</time>
      </trkpt>
      <trkpt lat="44.91263" lon="3.50386">
        <ele>1099</ele>
        <time>2009-07-12T13:05:03Z</time>
      </trkpt>
      <trkpt lat="44.91204" lon="3.50402">
        <ele>1101</ele>
        <time>2009-07-12T13:05:24Z</time>
      </trkpt>
      <trkpt lat="44.91152" lon="3.50417">
        <ele>1098</ele>
        <time>2009-07-12T13:05:38Z</time>
      </trkpt>
      <trkpt lat="44.91118" lon="3.50424">
        <ele>1098</ele>
        <time>2009-07-12T13:05:44Z</time>
      </trkpt>
      <trkpt lat="44.91096" lon="3.50447">
        <ele>1097</ele>
        <time>2009-07-12T13:05:49Z</time>
      </trkpt>
      <trkpt lat="44.91084" lon="3.50471">
        <ele>1096</ele>
        <time>2009-07-12T13:05:52Z</time>
      </trkpt>
      <trkpt lat="44.91073" lon="3.50486">
        <ele>1095</ele>
        <time>2009-07-12T13:05:54Z</time>
      </trkpt>
      <trkpt lat="44.9106" lon="3.50494">
        <ele>1097</ele>
        <time>2009-07-12T13:05:56Z</time>
      </trkpt>
      <trkpt lat="44.91025" lon="3.50512">
        <ele>1098</ele>
        <time>2009-07-12T13:06:08Z</time>
      </trkpt>
      <trkpt lat="44.91" lon="3.50525">
        <ele>1099</ele>
        <time>2009-07-12T13:06:22Z</time>
      </trkpt>
      <trkpt lat="44.90999" lon="3.50527">
        <ele>1100</ele>
        <time>2009-07-12T13:07:15Z</time>
      </trkpt>
      <trkpt lat="44.90976" lon="3.50509">
        <ele>1101</ele>
        <time>2009-07-12T13:07:27Z</time>
      </trkpt>
      <trkpt lat="44.90975" lon="3.50506">
        <ele>1101</ele>
        <time>2009-07-12T13:07:28Z</time>
      </trkpt>
      <trkpt lat="44.90968" lon="3.50444">
        <ele>1102</ele>
        <time>2009-07-12T13:07:44Z</time>
      </trkpt>
      <trkpt lat="44.90969" lon="3.50411">
        <ele>1105</ele>
        <time>2009-07-12T13:07:53Z</time>
      </trkpt>
      <trkpt lat="44.90944" lon="3.50379">
        <ele>1106</ele>
        <time>2009-07-12T13:08:08Z</time>
      </trkpt>
      <trkpt lat="44.90912" lon="3.50367">
        <ele>1109</ele>
        <time>2009-07-12T13:08:22Z</time>
      </trkpt>
      <trkpt lat="44.90894" lon="3.50361">
        <ele>1110</ele>
        <time>2009-07-12T13:08:29Z</time>
      </trkpt>
      <trkpt lat="44.90852" lon="3.50285">
        <ele>1109</ele>
        <time>2009-07-12T13:08:52Z</time>
      </trkpt>
      <trkpt lat="44.90824" lon="3.50242">
        <ele>1107</ele>
        <time>2009-07-12T13:09:03Z</time>
      </trkpt>
      <trkpt lat="44.90788" lon="3.50204">
        <ele>1105</ele>
        <time>2009-07-12T13:09:10Z</time>
      </trkpt>
      <trkpt lat="44.90775" lon="3.50194">
        <ele>1104</ele>
        <time>2009-07-12T13:09:12Z</time>
      </trkpt>
      <trkpt lat="44.90752" lon="3.50188">
        <ele>1102</ele>
        <time>2009-07-12T13:09:15Z</time>
      </trkpt>
      <trkpt lat="44.90658" lon="3.50188">
        <ele>1103</ele>
        <time>2009-07-12T13:09:29Z</time>
      </trkpt>
      <trkpt lat="44.90653" lon="3.50188">
        <ele>1102</ele>
        <time>2009-07-12T13:09:30Z</time>
      </trkpt>
      <trkpt lat="44.90597" lon="3.50193">
        <ele>1105</ele>
        <time>2009-07-12T13:09:42Z</time>
      </trkpt>
      <trkpt lat="44.90528" lon="3.502">
        <ele>1105</ele>
        <time>2009-07-12T13:10:00Z</time>
      </trkpt>
      <trkpt lat="44.90464" lon="3.50187">
        <ele>1105</ele>
        <time>2009-07-12T13:10:18Z</time>
      </trkpt>
      <trkpt lat="44.90396" lon="3.50183">
        <ele>1109</ele>
        <time>2009-07-12T13:10:38Z</time>
      </trkpt>
      <trkpt lat="44.90354" lon="3.50148">
        <ele>1112</ele>
        <time>2009-07-12T13:10:53Z</time>
      </trkpt>
      <trkpt lat="44.90326" lon="3.50116">
        <ele>1115</ele>
        <time>2009-07-12T13:11:06Z</time>
      </trkpt>
      <trkpt lat="44.90312" lon="3.50106">
        <ele>1117</ele>
        <time>2009-07-12T13:11:12Z</time>
      </trkpt>
      <trkpt lat="44.90256" lon="3.50078">
        <ele>1118</ele>
        <time>2009-07-12T13:11:33Z</time>
      </trkpt>
      <trkpt lat="44.90227" lon="3.50058">
        <ele>1121</ele>
        <time>2009-07-12T13:11:44Z</time>
      </trkpt>
      <trkpt lat="44.90169" lon="3.50036">
        <ele>1121</ele>
        <time>2009-07-12T13:12:03Z</time>
      </trkpt>
      <trkpt lat="44.90099" lon="3.50029">
        <ele>1121</ele>
        <time>2009-07-12T13:12:23Z</time>
      </trkpt>
      <trkpt lat="44.90036" lon="3.50039">
        <ele>1123</ele>
        <time>2009-07-12T13:12:44Z</time>
      </trkpt>
      <trkpt lat="44.90016" lon="3.50043">
        <ele>1125</ele>
        <time>2009-07-12T13:12:51Z</time>
      </trkpt>
      <trkpt lat="44.89976" lon="3.50051">
        <ele>1128</ele>
        <time>2009-07-12T13:13:05Z</time>
      </trkpt>
      <trkpt lat="44.89927" lon="3.50068">
        <ele>1132</ele>
        <time>2009-07-12T13:13:22Z</time>
      </trkpt>
      <trkpt lat="44.89871" lon="3.5009">
        <ele>1131</ele>
        <time>2009-07-12T13:13:39Z</time>
      </trkpt>
      <trkpt lat="44.89815" lon="3.50069">
        <ele>1132</ele>
        <time>2009-07-12T13:13:54Z</time>
      </trkpt>
      <trkpt lat="44.89759" lon="3.50042">
        <ele>1135</ele>
        <time>2009-07-12T13:14:11Z</time>
      </trkpt>
      <trkpt lat="44.89718" lon="3.50027">
        <ele>1138</ele>
        <time>2009-07-12T13:14:26Z</time>
      </trkpt>
      <trkpt lat="44.89672" lon="3.50013">
        <ele>1141</ele>
        <time>2009-07-12T13:14:45Z</time>
      </trkpt>
      <trkpt lat="44.89651" lon="3.50006">
        <ele>1144</ele>
        <time>2009-07-12T13:14:56Z</time>
      </trkpt>
      <trkpt lat="44.89635" lon="3.50001">
        <ele>1146</ele>
        <time>2009-07-12T13:15:04Z</time>
      </trkpt>
      <trkpt lat="44.89586" lon="3.49996">
        <ele>1149</ele>
        <time>2009-07-12T13:15:28Z</time>
      </trkpt>
      <trkpt lat="44.89547" lon="3.50004">
        <ele>1152</ele>
        <time>2009-07-12T13:15:46Z</time>
      </trkpt>
      <trkpt lat="44.89534" lon="3.50008">
        <ele>1155</ele>
        <time>2009-07-12T13:15:52Z</time>
      </trkpt>
      <trkpt lat="44.89487" lon="3.50025">
        <ele>1157</ele>
        <time>2009-07-12T13:16:12Z</time>
      </trkpt>
      <trkpt lat="44.89452" lon="3.5002">
        <ele>1157</ele>
        <time>2009-07-12T13:16:25Z</time>
      </trkpt>
      <trkpt lat="44.89411" lon="3.5">
        <ele>1154</ele>
        <time>2009-07-12T13:16:39Z</time>
      </trkpt>
      <trkpt lat="44.8938" lon="3.49984">
        <ele>1151</ele>
        <time>2009-07-12T13:16:45Z</time>
      </trkpt>
      <trkpt lat="44.89368" lon="3.49977">
        <ele>1149</ele>
        <time>2009-07-12T13:16:47Z</time>
      </trkpt>
      <trkpt lat="44.89355" lon="3.4997">
        <ele>1147</ele>
        <time>2009-07-12T13:16:49Z</time>
      </trkpt>
      <trkpt lat="44.89334" lon="3.49959">
        <ele>1146</ele>
        <time>2009-07-12T13:16:52Z</time>
      </trkpt>
      <trkpt lat="44.89313" lon="3.49944">
        <ele>1145</ele>
        <time>2009-07-12T13:16:55Z</time>
      </trkpt>
      <trkpt lat="44.89258" lon="3.49862">
        <ele>1144</ele>
        <time>2009-07-12T13:17:06Z</time>
      </trkpt>
      <trkpt lat="44.89246" lon="3.49845">
        <ele>1145</ele>
        <time>2009-07-12T13:17:09Z</time>
      </trkpt>
      <trkpt lat="44.89201" lon="3.49758">
        <ele>1146</ele>
        <time>2009-07-12T13:17:27Z</time>
      </trkpt>
      <trkpt lat="44.8918" lon="3.49727">
        <ele>1146</ele>
        <time>2009-07-12T13:17:34Z</time>
      </trkpt>
      <trkpt lat="44.8914" lon="3.49649">
        <ele>1145</ele>
        <time>2009-07-12T13:17:48Z</time>
      </trkpt>
      <trkpt lat="44.89122" lon="3.49632">
        <ele>1144</ele>
        <time>2009-07-12T13:17:52Z</time>
      </trkpt>
      <trkpt lat="44.8911" lon="3.49628">
        <ele>1144</ele>
        <time>2009-07-12T13:17:54Z</time>
      </trkpt>
      <trkpt lat="44.89098" lon="3.49629">
        <ele>1143</ele>
        <time>2009-07-12T13:17:56Z</time>
      </trkpt>
      <trkpt lat="44.89078" lon="3.49626">
        <ele>1143</ele>
        <time>2009-07-12T13:17:59Z</time>
      </trkpt>
      <trkpt lat="44.89047" lon="3.49613">
        <ele>1142</ele>
        <time>2009-07-12T13:18:04Z</time>
      </trkpt>
      <trkpt lat="44.89018" lon="3.4958">
        <ele>1139</ele>
        <time>2009-07-12T13:18:09Z</time>
      </trkpt>
      <trkpt lat="44.89002" lon="3.49541">
        <ele>1142</ele>
        <time>2009-07-12T13:18:14Z</time>
      </trkpt>
      <trkpt lat="44.89001" lon="3.49536">
        <ele>1142</ele>
        <time>2009-07-12T13:18:15Z</time>
      </trkpt>
      <trkpt lat="44.88982" lon="3.49506">
        <ele>1140</ele>
        <time>2009-07-12T13:18:21Z</time>
      </trkpt>
      <trkpt lat="44.88959" lon="3.4949">
        <ele>1141</ele>
        <time>2009-07-12T13:18:27Z</time>
      </trkpt>
      <trkpt lat="44.88937" lon="3.49491">
        <ele>1141</ele>
        <time>2009-07-12T13:18:32Z</time>
      </trkpt>
      <trkpt lat="44.88928" lon="3.49494">
        <ele>1141</ele>
        <time>2009-07-12T13:18:34Z</time>
      </trkpt>
      <trkpt lat="44.88912" lon="3.49493">
        <ele>1141</ele>
        <time>2009-07-12T13:18:38Z</time>
      </trkpt>
      <trkpt lat="44.8885" lon="3.49454">
        <ele>1144</ele>
        <time>2009-07-12T13:18:57Z</time>
      </trkpt>
      <trkpt lat="44.88813" lon="3.49436">
        <ele>1147</ele>
        <time>2009-07-12T13:19:12Z</time>
      </trkpt>
      <trkpt lat="44.88795" lon="3.49457">
        <ele>1146</ele>
        <time>2009-07-12T13:19:22Z</time>
      </trkpt>
      <trkpt lat="44.88768" lon="3.49513">
        <ele>1148</ele>
        <time>2009-07-12T13:19:40Z</time>
      </trkpt>
      <trkpt lat="44.88756" lon="3.49538">
        <ele>1150</ele>
        <time>2009-07-12T13:19:48Z</time>
      </trkpt>
      <trkpt lat="44.88726" lon="3.49582">
        <ele>1154</ele>
        <time>2009-07-12T13:20:05Z</time>
      </trkpt>
      <trkpt lat="44.88711" lon="3.49602">
        <ele>1157</ele>
        <time>2009-07-12T13:20:15Z</time>
      </trkpt>
      <trkpt lat="44.88676" lon="3.49642">
        <ele>1159</ele>
        <time>2009-07-12T13:20:32Z</time>
      </trkpt>
      <trkpt lat="44.88627" lon="3.49676">
        <ele>1159</ele>
        <time>2009-07-12T13:20:48Z</time>
      </trkpt>
      <trkpt lat="44.88607" lon="3.49683">
        <ele>1158</ele>
        <time>2009-07-12T13:20:53Z</time>
      </trkpt>
      <trkpt lat="44.88534" lon="3.4968">
        <ele>1158</ele>
        <time>2009-07-12T13:21:09Z</time>
      </trkpt>
      <trkpt lat="44.88451" lon="3.49671">
        <ele>1156</ele>
        <time>2009-07-12T13:21:27Z</time>
      </trkpt>
      <trkpt lat="44.88412" lon="3.49678">
        <ele>1156</ele>
        <time>2009-07-12T13:21:35Z</time>
      </trkpt>
      <trkpt lat="44.88387" lon="3.49705">
        <ele>1155</ele>
        <time>2009-07-12T13:21:41Z</time>
      </trkpt>
      <trkpt lat="44.88333" lon="3.49819">
        <ele>1154</ele>
        <time>2009-07-12T13:22:01Z</time>
      </trkpt>
      <trkpt lat="44.88328" lon="3.49829">
        <ele>1155</ele>
        <time>2009-07-12T13:22:03Z</time>
      </trkpt>
      <trkpt lat="44.88283" lon="3.49879">
        <ele>1151</ele>
        <time>2009-07-12T13:22:13Z</time>
      </trkpt>
      <trkpt lat="44.88271" lon="3.49887">
        <ele>1150</ele>
        <time>2009-07-12T13:22:15Z</time>
      </trkpt>
      <trkpt lat="44.88234" lon="3.49903">
        <ele>1147</ele>
        <time>2009-07-12T13:22:20Z</time>
      </trkpt>
      <trkpt lat="44.88227" lon="3.49905">
        <ele>1145</ele>
        <time>2009-07-12T13:22:21Z</time>
      </trkpt>
      <trkpt lat="44.88197" lon="3.49902">
        <ele>1140</ele>
        <time>2009-07-12T13:22:25Z</time>
      </trkpt>
      <trkpt lat="44.88166" lon="3.49903">
        <ele>1138</ele>
        <time>2009-07-12T13:22:30Z</time>
      </trkpt>
      <trkpt lat="44.88146" lon="3.49911">
        <ele>1137</ele>
        <time>2009-07-12T13:22:34Z</time>
      </trkpt>
      <trkpt lat="44.88122" lon="3.49928">
        <ele>1133</ele>
        <time>2009-07-12T13:22:40Z</time>
      </trkpt>
      <trkpt lat="44.88094" lon="3.49951">
        <ele>1135</ele>
        <time>2009-07-12T13:22:46Z</time>
      </trkpt>
      <trkpt lat="44.88077" lon="3.49958">
        <ele>1134</ele>
        <time>2009-07-12T13:22:51Z</time>
      </trkpt>
      <trkpt lat="44.8806" lon="3.49962">
        <ele>1133</ele>
        <time>2009-07-12T13:23:02Z</time>
      </trkpt>
      <trkpt lat="44.88053" lon="3.49966">
        <ele>1130</ele>
        <time>2009-07-12T13:23:16Z</time>
      </trkpt>
      <trkpt lat="44.88046" lon="3.49964">
        <ele>1129</ele>
        <time>2009-07-12T13:23:19Z</time>
      </trkpt>
      <trkpt lat="44.88034" lon="3.49965">
        <ele>1126</ele>
        <time>2009-07-12T13:23:23Z</time>
      </trkpt>
      <trkpt lat="44.88032" lon="3.49967">
        <ele>1125</ele>
        <time>2009-07-12T13:23:35Z</time>
      </trkpt>
      <trkpt lat="44.88032" lon="3.49968">
        <ele>1124</ele>
        <time>2009-07-12T13:24:04Z</time>
      </trkpt>
      <trkpt lat="44.88031" lon="3.49966">
        <ele>1125</ele>
        <time>2009-07-12T13:25:14Z</time>
      </trkpt>
      <trkpt lat="44.88029" lon="3.4995">
        <ele>1123</ele>
        <time>2009-07-12T13:25:20Z</time>
      </trkpt>
      <trkpt lat="44.88032" lon="3.49937">
        <ele>1123</ele>
        <time>2009-07-12T13:25:26Z</time>
      </trkpt>
      <trkpt lat="44.88023" lon="3.49945">
        <ele>1120</ele>
        <time>2009-07-12T13:25:31Z</time>
      </trkpt>
      <trkpt lat="44.88019" lon="3.49964">
        <ele>1122</ele>
        <time>2009-07-12T13:25:35Z</time>
      </trkpt>
      <trkpt lat="44.8802" lon="3.49973">
        <ele>1121</ele>
        <time>2009-07-12T13:25:47Z</time>
      </trkpt>
      <trkpt lat="44.88021" lon="3.49996">
        <ele>1117</ele>
        <time>2009-07-12T13:26:16Z</time>
      </trkpt>
      <trkpt lat="44.88012" lon="3.5001">
        <ele>1113</ele>
        <time>2009-07-12T13:26:20Z</time>
      </trkpt>
      <trkpt lat="44.88009" lon="3.5001">
        <ele>1112</ele>
        <time>2009-07-12T13:26:21Z</time>
      </trkpt>
      <trkpt lat="44.88002" lon="3.50007">
        <ele>1111</ele>
        <time>2009-07-12T13:26:23Z</time>
      </trkpt>
      <trkpt lat="44.87997" lon="3.50001">
        <ele>1111</ele>
        <time>2009-07-12T13:26:24Z</time>
      </trkpt>
      <trkpt lat="44.87988" lon="3.49995">
        <ele>1109</ele>
        <time>2009-07-12T13:26:26Z</time>
      </trkpt>
      <trkpt lat="44.8798" lon="3.49999">
        <ele>1107</ele>
        <time>2009-07-12T13:26:28Z</time>
      </trkpt>
      <trkpt lat="44.87953" lon="3.50016">
        <ele>1100</ele>
        <time>2009-07-12T13:26:33Z</time>
      </trkpt>
      <trkpt lat="44.87945" lon="3.50016">
        <ele>1102</ele>
        <time>2009-07-12T13:26:34Z</time>
      </trkpt>
      <trkpt lat="44.87929" lon="3.50017">
        <ele>1100</ele>
        <time>2009-07-12T13:26:36Z</time>
      </trkpt>
      <trkpt lat="44.87895" lon="3.50022">
        <ele>1096</ele>
        <time>2009-07-12T13:26:40Z</time>
      </trkpt>
      <trkpt lat="44.87851" lon="3.50005">
        <ele>1098</ele>
        <time>2009-07-12T13:26:47Z</time>
      </trkpt>
      <trkpt lat="44.87839" lon="3.50004">
        <ele>1100</ele>
        <time>2009-07-12T13:26:50Z</time>
      </trkpt>
      <trkpt lat="44.87826" lon="3.49996">
        <ele>1098</ele>
        <time>2009-07-12T13:26:54Z</time>
      </trkpt>
      <trkpt lat="44.87797" lon="3.4997">
        <ele>1101</ele>
        <time>2009-07-12T13:27:08Z</time>
      </trkpt>
      <trkpt lat="44.87773" lon="3.49952">
        <ele>1104</ele>
        <time>2009-07-12T13:27:20Z</time>
      </trkpt>
      <trkpt lat="44.87741" lon="3.49942">
        <ele>1106</ele>
        <time>2009-07-12T13:27:33Z</time>
      </trkpt>
      <trkpt lat="44.87705" lon="3.49921">
        <ele>1107</ele>
        <time>2009-07-12T13:27:47Z</time>
      </trkpt>
      <trkpt lat="44.87665" lon="3.49896">
        <ele>1109</ele>
        <time>2009-07-12T13:28:03Z</time>
      </trkpt>
      <trkpt lat="44.87616" lon="3.49878">
        <ele>1109</ele>
        <time>2009-07-12T13:28:20Z</time>
      </trkpt>
      <trkpt lat="44.87582" lon="3.49853">
        <ele>1112</ele>
        <time>2009-07-12T13:28:35Z</time>
      </trkpt>
      <trkpt lat="44.87541" lon="3.49821">
        <ele>1114</ele>
        <time>2009-07-12T13:28:55Z</time>
      </trkpt>
      <trkpt lat="44.87525" lon="3.49813">
        <ele>1118</ele>
        <time>2009-07-12T13:29:04Z</time>
      </trkpt>
      <trkpt lat="44.87524" lon="3.49813">
        <ele>1117</ele>
        <time>2009-07-12T13:29:07Z</time>
      </trkpt>
      <trkpt lat="44.87523" lon="3.49811">
        <ele>1117</ele>
        <time>2009-07-12T13:29:09Z</time>
      </trkpt>
      <trkpt lat="44.875" lon="3.49789">
        <ele>1117</ele>
        <time>2009-07-12T13:29:23Z</time>
      </trkpt>
      <trkpt lat="44.87474" lon="3.49764">
        <ele>1120</ele>
        <time>2009-07-12T13:29:38Z</time>
      </trkpt>
      <trkpt lat="44.87464" lon="3.49752">
        <ele>1123</ele>
        <time>2009-07-12T13:29:51Z</time>
      </trkpt>
      <trkpt lat="44.8746" lon="3.49746">
        <ele>1122</ele>
        <time>2009-07-12T13:30:03Z</time>
      </trkpt>
      <trkpt lat="44.87451" lon="3.49752">
        <ele>1123</ele>
        <time>2009-07-12T13:30:12Z</time>
      </trkpt>
      <trkpt lat="44.87446" lon="3.49757">
        <ele>1124</ele>
        <time>2009-07-12T13:30:18Z</time>
      </trkpt>
      <trkpt lat="44.87442" lon="3.49758">
        <ele>1123</ele>
        <time>2009-07-12T13:30:22Z</time>
      </trkpt>
      <trkpt lat="44.87442" lon="3.49757">
        <ele>1123</ele>
        <time>2009-07-12T13:30:26Z</time>
      </trkpt>
      <trkpt lat="44.87415" lon="3.49741">
        <ele>1127</ele>
        <time>2009-07-12T13:30:42Z</time>
      </trkpt>
      <trkpt lat="44.87398" lon="3.49731">
        <ele>1126</ele>
        <time>2009-07-12T13:30:51Z</time>
      </trkpt>
      <trkpt lat="44.87384" lon="3.49761">
        <ele>1127</ele>
        <time>2009-07-12T13:31:07Z</time>
      </trkpt>
      <trkpt lat="44.87371" lon="3.49765">
        <ele>1128</ele>
        <time>2009-07-12T13:31:15Z</time>
      </trkpt>
      <trkpt lat="44.87367" lon="3.49764">
        <ele>1129</ele>
        <time>2009-07-12T13:31:18Z</time>
      </trkpt>
      <trkpt lat="44.87358" lon="3.49764">
        <ele>1130</ele>
        <time>2009-07-12T13:31:27Z</time>
      </trkpt>
      <trkpt lat="44.87356" lon="3.49758">
        <ele>1128</ele>
        <time>2009-07-12T13:31:30Z</time>
      </trkpt>
      <trkpt lat="44.87356" lon="3.49755">
        <ele>1128</ele>
        <time>2009-07-12T13:31:48Z</time>
      </trkpt>
      <trkpt lat="44.87357" lon="3.49755">
        <ele>1128</ele>
        <time>2009-07-12T13:32:05Z</time>
      </trkpt>
      <trkpt lat="44.8735" lon="3.49751">
        <ele>1127</ele>
        <time>2009-07-12T13:32:14Z</time>
      </trkpt>
      <trkpt lat="44.87352" lon="3.49749">
        <ele>1128</ele>
        <time>2009-07-12T13:33:06Z</time>
      </trkpt>
      <trkpt lat="44.87352" lon="3.49749">
        <ele>1127</ele>
        <time>2009-07-12T13:33:09Z</time>
      </trkpt>
      <trkpt lat="44.87351" lon="3.49747">
        <ele>1127</ele>
        <time>2009-07-12T13:33:27Z</time>
      </trkpt>
      <trkpt lat="44.87331" lon="3.49713">
        <ele>1123</ele>
        <time>2009-07-12T13:33:37Z</time>
      </trkpt>
      <trkpt lat="44.87307" lon="3.49676">
        <ele>1120</ele>
        <time>2009-07-12T13:33:44Z</time>
      </trkpt>
      <trkpt lat="44.87302" lon="3.4967">
        <ele>1120</ele>
        <time>2009-07-12T13:33:45Z</time>
      </trkpt>
      <trkpt lat="44.87298" lon="3.49663">
        <ele>1119</ele>
        <time>2009-07-12T13:33:46Z</time>
      </trkpt>
      <trkpt lat="44.87273" lon="3.49644">
        <ele>1117</ele>
        <time>2009-07-12T13:33:50Z</time>
      </trkpt>
      <trkpt lat="44.87253" lon="3.49633">
        <ele>1114</ele>
        <time>2009-07-12T13:33:53Z</time>
      </trkpt>
      <trkpt lat="44.87239" lon="3.49626">
        <ele>1114</ele>
        <time>2009-07-12T13:33:55Z</time>
      </trkpt>
      <trkpt lat="44.87209" lon="3.49588">
        <ele>1108</ele>
        <time>2009-07-12T13:34:00Z</time>
      </trkpt>
      <trkpt lat="44.87205" lon="3.49577">
        <ele>1108</ele>
        <time>2009-07-12T13:34:01Z</time>
      </trkpt>
      <trkpt lat="44.87195" lon="3.49548">
        <ele>1108</ele>
        <time>2009-07-12T13:34:04Z</time>
      </trkpt>
      <trkpt lat="44.87181" lon="3.49522">
        <ele>1106</ele>
        <time>2009-07-12T13:34:08Z</time>
      </trkpt>
      <trkpt lat="44.87161" lon="3.49522">
        <ele>1107</ele>
        <time>2009-07-12T13:34:12Z</time>
      </trkpt>
      <trkpt lat="44.87124" lon="3.49545">
        <ele>1108</ele>
        <time>2009-07-12T13:34:25Z</time>
      </trkpt>
      <trkpt lat="44.87069" lon="3.49567">
        <ele>1110</ele>
        <time>2009-07-12T13:34:42Z</time>
      </trkpt>
      <trkpt lat="44.87052" lon="3.4958">
        <ele>1113</ele>
        <time>2009-07-12T13:34:49Z</time>
      </trkpt>
      <trkpt lat="44.87017" lon="3.49579">
        <ele>1117</ele>
        <time>2009-07-12T13:35:01Z</time>
      </trkpt>
      <trkpt lat="44.86976" lon="3.49575">
        <ele>1118</ele>
        <time>2009-07-12T13:35:16Z</time>
      </trkpt>
      <trkpt lat="44.86939" lon="3.49587">
        <ele>1120</ele>
        <time>2009-07-12T13:35:31Z</time>
      </trkpt>
      <trkpt lat="44.86898" lon="3.496">
        <ele>1122</ele>
        <time>2009-07-12T13:35:48Z</time>
      </trkpt>
      <trkpt lat="44.8685" lon="3.4961">
        <ele>1121</ele>
        <time>2009-07-12T13:36:04Z</time>
      </trkpt>
      <trkpt lat="44.86814" lon="3.4962">
        <ele>1120</ele>
        <time>2009-07-12T13:36:13Z</time>
      </trkpt>
      <trkpt lat="44.86774" lon="3.49618">
        <ele>1122</ele>
        <time>2009-07-12T13:36:25Z</time>
      </trkpt>
      <trkpt lat="44.86733" lon="3.49594">
        <ele>1124</ele>
        <time>2009-07-12T13:36:40Z</time>
      </trkpt>
      <trkpt lat="44.86692" lon="3.49588">
        <ele>1127</ele>
        <time>2009-07-12T13:36:54Z</time>
      </trkpt>
      <trkpt lat="44.86652" lon="3.49592">
        <ele>1130</ele>
        <time>2009-07-12T13:37:08Z</time>
      </trkpt>
      <trkpt lat="44.86601" lon="3.49589">
        <ele>1132</ele>
        <time>2009-07-12T13:37:27Z</time>
      </trkpt>
      <trkpt lat="44.86588" lon="3.49586">
        <ele>1133</ele>
        <time>2009-07-12T13:37:32Z</time>
      </trkpt>
      <trkpt lat="44.86551" lon="3.49558">
        <ele>1136</ele>
        <time>2009-07-12T13:37:47Z</time>
      </trkpt>
      <trkpt lat="44.86507" lon="3.49524">
        <ele>1139</ele>
        <time>2009-07-12T13:38:03Z</time>
      </trkpt>
      <trkpt lat="44.86446" lon="3.49513">
        <ele>1140</ele>
        <time>2009-07-12T13:38:22Z</time>
      </trkpt>
      <trkpt lat="44.86399" lon="3.49522">
        <ele>1141</ele>
        <time>2009-07-12T13:38:36Z</time>
      </trkpt>
      <trkpt lat="44.86367" lon="3.49529">
        <ele>1139</ele>
        <time>2009-07-12T13:38:43Z</time>
      </trkpt>
      <trkpt lat="44.86332" lon="3.49518">
        <ele>1134</ele>
        <time>2009-07-12T13:38:48Z</time>
      </trkpt>
      <trkpt lat="44.86324" lon="3.49517">
        <ele>1134</ele>
        <time>2009-07-12T13:38:49Z</time>
      </trkpt>
      <trkpt lat="44.86299" lon="3.49519">
        <ele>1133</ele>
        <time>2009-07-12T13:38:52Z</time>
      </trkpt>
      <trkpt lat="44.86273" lon="3.49513">
        <ele>1129</ele>
        <time>2009-07-12T13:38:55Z</time>
      </trkpt>
      <trkpt lat="44.86233" lon="3.495">
        <ele>1128</ele>
        <time>2009-07-12T13:39:00Z</time>
      </trkpt>
      <trkpt lat="44.86213" lon="3.49488">
        <ele>1128</ele>
        <time>2009-07-12T13:39:03Z</time>
      </trkpt>
      <trkpt lat="44.86184" lon="3.49471">
        <ele>1131</ele>
        <time>2009-07-12T13:39:09Z</time>
      </trkpt>
      <trkpt lat="44.8618" lon="3.4947">
        <ele>1133</ele>
        <time>2009-07-12T13:39:11Z</time>
      </trkpt>
      <trkpt lat="44.86153" lon="3.49475">
        <ele>1136</ele>
        <time>2009-07-12T13:39:23Z</time>
      </trkpt>
      <trkpt lat="44.86115" lon="3.49473">
        <ele>1138</ele>
        <time>2009-07-12T13:39:40Z</time>
      </trkpt>
      <trkpt lat="44.86089" lon="3.49463">
        <ele>1141</ele>
        <time>2009-07-12T13:39:53Z</time>
      </trkpt>
      <trkpt lat="44.8606" lon="3.49442">
        <ele>1145</ele>
        <time>2009-07-12T13:40:12Z</time>
      </trkpt>
      <trkpt lat="44.86039" lon="3.49431">
        <ele>1148</ele>
        <time>2009-07-12T13:40:25Z</time>
      </trkpt>
      <trkpt lat="44.86013" lon="3.49418">
        <ele>1151</ele>
        <time>2009-07-12T13:40:41Z</time>
      </trkpt>
      <trkpt lat="44.85983" lon="3.494">
        <ele>1151</ele>
        <time>2009-07-12T13:40:59Z</time>
      </trkpt>
      <trkpt lat="44.8595" lon="3.4938">
        <ele>1154</ele>
        <time>2009-07-12T13:41:15Z</time>
      </trkpt>
      <trkpt lat="44.85915" lon="3.49364">
        <ele>1157</ele>
        <time>2009-07-12T13:41:31Z</time>
      </trkpt>
      <trkpt lat="44.85882" lon="3.49363">
        <ele>1159</ele>
        <time>2009-07-12T13:41:47Z</time>
      </trkpt>
      <trkpt lat="44.85843" lon="3.49333">
        <ele>1160</ele>
        <time>2009-07-12T13:42:04Z</time>
      </trkpt>
      <trkpt lat="44.85817" lon="3.49303">
        <ele>1159</ele>
        <time>2009-07-12T13:42:14Z</time>
      </trkpt>
      <trkpt lat="44.85777" lon="3.49303">
        <ele>1158</ele>
        <time>2009-07-12T13:42:26Z</time>
      </trkpt>
      <trkpt lat="44.85758" lon="3.49306">
        <ele>1156</ele>
        <time>2009-07-12T13:42:30Z</time>
      </trkpt>
      <trkpt lat="44.85712" lon="3.49311">
        <ele>1157</ele>
        <time>2009-07-12T13:42:42Z</time>
      </trkpt>
      <trkpt lat="44.8569" lon="3.49322">
        <ele>1157</ele>
        <time>2009-07-12T13:42:49Z</time>
      </trkpt>
      <trkpt lat="44.85656" lon="3.49351">
        <ele>1158</ele>
        <time>2009-07-12T13:43:03Z</time>
      </trkpt>
      <trkpt lat="44.8564" lon="3.49345">
        <ele>1157</ele>
        <time>2009-07-12T13:43:08Z</time>
      </trkpt>
      <trkpt lat="44.8561" lon="3.49338">
        <ele>1158</ele>
        <time>2009-07-12T13:43:19Z</time>
      </trkpt>
      <trkpt lat="44.8561" lon="3.49339">
        <ele>1159</ele>
        <time>2009-07-12T13:43:20Z</time>
      </trkpt>
      <trkpt lat="44.8562" lon="3.49339">
        <ele>1157</ele>
        <time>2009-07-12T13:43:25Z</time>
      </trkpt>
      <trkpt lat="44.85643" lon="3.49347">
        <ele>1156</ele>
        <time>2009-07-12T13:43:34Z</time>
      </trkpt>
      <trkpt lat="44.85653" lon="3.49358">
        <ele>1158</ele>
        <time>2009-07-12T13:43:47Z</time>
      </trkpt>
      <trkpt lat="44.85651" lon="3.49359">
        <ele>1158</ele>
        <time>2009-07-12T13:44:24Z</time>
      </trkpt>
      <trkpt lat="44.8565" lon="3.49359">
        <ele>1158</ele>
        <time>2009-07-12T13:45:15Z</time>
      </trkpt>
      <trkpt lat="44.85649" lon="3.49359">
        <ele>1159</ele>
        <time>2009-07-12T13:45:22Z</time>
      </trkpt>
      <trkpt lat="44.85634" lon="3.49344">
        <ele>1157</ele>
        <time>2009-07-12T13:45:31Z</time>
      </trkpt>
      <trkpt lat="44.856" lon="3.49343">
        <ele>1158</ele>
        <time>2009-07-12T13:45:45Z</time>
      </trkpt>
      <trkpt lat="44.85585" lon="3.49347">
        <ele>1160</ele>
        <time>2009-07-12T13:45:52Z</time>
      </trkpt>
      <trkpt lat="44.8556" lon="3.49359">
        <ele>1162</ele>
        <time>2009-07-12T13:46:04Z</time>
      </trkpt>
      <trkpt lat="44.85519" lon="3.49374">
        <ele>1165</ele>
        <time>2009-07-12T13:46:23Z</time>
      </trkpt>
      <trkpt lat="44.85476" lon="3.49384">
        <ele>1167</ele>
        <time>2009-07-12T13:46:40Z</time>
      </trkpt>
      <trkpt lat="44.85446" lon="3.49412">
        <ele>1166</ele>
        <time>2009-07-12T13:46:50Z</time>
      </trkpt>
      <trkpt lat="44.85428" lon="3.49463">
        <ele>1168</ele>
        <time>2009-07-12T13:47:04Z</time>
      </trkpt>
      <trkpt lat="44.85418" lon="3.49494">
        <ele>1171</ele>
        <time>2009-07-12T13:47:14Z</time>
      </trkpt>
      <trkpt lat="44.85415" lon="3.49504">
        <ele>1173</ele>
        <time>2009-07-12T13:47:17Z</time>
      </trkpt>
      <trkpt lat="44.85406" lon="3.49554">
        <ele>1176</ele>
        <time>2009-07-12T13:47:33Z</time>
      </trkpt>
      <trkpt lat="44.85406" lon="3.49557">
        <ele>1176</ele>
        <time>2009-07-12T13:47:34Z</time>
      </trkpt>
      <trkpt lat="44.854" lon="3.49584">
        <ele>1177</ele>
        <time>2009-07-12T13:47:44Z</time>
      </trkpt>
      <trkpt lat="44.85399" lon="3.49586">
        <ele>1178</ele>
        <time>2009-07-12T13:47:47Z</time>
      </trkpt>
      <trkpt lat="44.85363" lon="3.49587">
        <ele>1175</ele>
        <time>2009-07-12T13:48:02Z</time>
      </trkpt>
      <trkpt lat="44.85326" lon="3.49572">
        <ele>1177</ele>
        <time>2009-07-12T13:48:16Z</time>
      </trkpt>
      <trkpt lat="44.85285" lon="3.49572">
        <ele>1181</ele>
        <time>2009-07-12T13:48:32Z</time>
      </trkpt>
      <trkpt lat="44.85283" lon="3.49572">
        <ele>1181</ele>
        <time>2009-07-12T13:48:33Z</time>
      </trkpt>
      <trkpt lat="44.85244" lon="3.49563">
        <ele>1184</ele>
        <time>2009-07-12T13:48:50Z</time>
      </trkpt>
      <trkpt lat="44.85207" lon="3.49566">
        <ele>1186</ele>
        <time>2009-07-12T13:49:05Z</time>
      </trkpt>
      <trkpt lat="44.85157" lon="3.49581">
        <ele>1186</ele>
        <time>2009-07-12T13:49:23Z</time>
      </trkpt>
      <trkpt lat="44.85142" lon="3.49585">
        <ele>1185</ele>
        <time>2009-07-12T13:49:27Z</time>
      </trkpt>
      <trkpt lat="44.85095" lon="3.49614">
        <ele>1185</ele>
        <time>2009-07-12T13:49:40Z</time>
      </trkpt>
      <trkpt lat="44.85066" lon="3.49661">
        <ele>1188</ele>
        <time>2009-07-12T13:49:53Z</time>
      </trkpt>
      <trkpt lat="44.85021" lon="3.49662">
        <ele>1188</ele>
        <time>2009-07-12T13:50:07Z</time>
      </trkpt>
      <trkpt lat="44.84983" lon="3.49662">
        <ele>1189</ele>
        <time>2009-07-12T13:50:21Z</time>
      </trkpt>
      <trkpt lat="44.84972" lon="3.49678">
        <ele>1191</ele>
        <time>2009-07-12T13:50:27Z</time>
      </trkpt>
      <trkpt lat="44.84966" lon="3.49686">
        <ele>1192</ele>
        <time>2009-07-12T13:50:30Z</time>
      </trkpt>
      <trkpt lat="44.84938" lon="3.49717">
        <ele>1195</ele>
        <time>2009-07-12T13:50:47Z</time>
      </trkpt>
      <trkpt lat="44.84919" lon="3.49745">
        <ele>1198</ele>
        <time>2009-07-12T13:51:01Z</time>
      </trkpt>
      <trkpt lat="44.84918" lon="3.49746">
        <ele>1198</ele>
        <time>2009-07-12T13:51:02Z</time>
      </trkpt>
      <trkpt lat="44.84887" lon="3.49733">
        <ele>1202</ele>
        <time>2009-07-12T13:51:18Z</time>
      </trkpt>
      <trkpt lat="44.84855" lon="3.49729">
        <ele>1204</ele>
        <time>2009-07-12T13:51:34Z</time>
      </trkpt>
      <trkpt lat="44.84837" lon="3.49708">
        <ele>1206</ele>
        <time>2009-07-12T13:51:44Z</time>
      </trkpt>
      <trkpt lat="44.8481" lon="3.49671">
        <ele>1206</ele>
        <time>2009-07-12T13:51:57Z</time>
      </trkpt>
      <trkpt lat="44.84784" lon="3.49666">
        <ele>1207</ele>
        <time>2009-07-12T13:52:07Z</time>
      </trkpt>
      <trkpt lat="44.8474" lon="3.49711">
        <ele>1207</ele>
        <time>2009-07-12T13:52:24Z</time>
      </trkpt>
      <trkpt lat="44.84727" lon="3.49725">
        <ele>1209</ele>
        <time>2009-07-12T13:52:29Z</time>
      </trkpt>
      <trkpt lat="44.84722" lon="3.4973">
        <ele>1207</ele>
        <time>2009-07-12T13:52:31Z</time>
      </trkpt>
      <trkpt lat="44.847" lon="3.49748">
        <ele>1209</ele>
        <time>2009-07-12T13:52:38Z</time>
      </trkpt>
      <trkpt lat="44.84656" lon="3.49784">
        <ele>1208</ele>
        <time>2009-07-12T13:52:52Z</time>
      </trkpt>
      <trkpt lat="44.84653" lon="3.49785">
        <ele>1209</ele>
        <time>2009-07-12T13:52:53Z</time>
      </trkpt>
      <trkpt lat="44.84599" lon="3.49805">
        <ele>1210</ele>
        <time>2009-07-12T13:53:09Z</time>
      </trkpt>
      <trkpt lat="44.84585" lon="3.49815">
        <ele>1211</ele>
        <time>2009-07-12T13:53:14Z</time>
      </trkpt>
      <trkpt lat="44.84544" lon="3.49824">
        <ele>1212</ele>
        <time>2009-07-12T13:53:28Z</time>
      </trkpt>
      <trkpt lat="44.84501" lon="3.49841">
        <ele>1215</ele>
        <time>2009-07-12T13:53:45Z</time>
      </trkpt>
      <trkpt lat="44.8449" lon="3.49848">
        <ele>1218</ele>
        <time>2009-07-12T13:53:51Z</time>
      </trkpt>
      <trkpt lat="44.84476" lon="3.49854">
        <ele>1221</ele>
        <time>2009-07-12T13:53:59Z</time>
      </trkpt>
      <trkpt lat="44.84474" lon="3.49855">
        <ele>1221</ele>
        <time>2009-07-12T13:54:00Z</time>
      </trkpt>
      <trkpt lat="44.84453" lon="3.49851">
        <ele>1223</ele>
        <time>2009-07-12T13:54:12Z</time>
      </trkpt>
      <trkpt lat="44.84427" lon="3.49839">
        <ele>1224</ele>
        <time>2009-07-12T13:54:24Z</time>
      </trkpt>
      <trkpt lat="44.84386" lon="3.49828">
        <ele>1225</ele>
        <time>2009-07-12T13:54:38Z</time>
      </trkpt>
      <trkpt lat="44.84354" lon="3.49814">
        <ele>1223</ele>
        <time>2009-07-12T13:54:46Z</time>
      </trkpt>
      <trkpt lat="44.84326" lon="3.4981">
        <ele>1222</ele>
        <time>2009-07-12T13:54:53Z</time>
      </trkpt>
      <trkpt lat="44.84301" lon="3.49818">
        <ele>1222</ele>
        <time>2009-07-12T13:55:01Z</time>
      </trkpt>
      <trkpt lat="44.84284" lon="3.49808">
        <ele>1223</ele>
        <time>2009-07-12T13:55:06Z</time>
      </trkpt>
      <trkpt lat="44.84275" lon="3.49788">
        <ele>1226</ele>
        <time>2009-07-12T13:55:13Z</time>
      </trkpt>
      <trkpt lat="44.84268" lon="3.49747">
        <ele>1229</ele>
        <time>2009-07-12T13:55:27Z</time>
      </trkpt>
      <trkpt lat="44.84263" lon="3.49734">
        <ele>1230</ele>
        <time>2009-07-12T13:55:37Z</time>
      </trkpt>
      <trkpt lat="44.84261" lon="3.49732">
        <ele>1230</ele>
        <time>2009-07-12T13:55:51Z</time>
      </trkpt>
      <trkpt lat="44.84261" lon="3.49735">
        <ele>1228</ele>
        <time>2009-07-12T13:56:22Z</time>
      </trkpt>
      <trkpt lat="44.84256" lon="3.49726">
        <ele>1230</ele>
        <time>2009-07-12T13:57:17Z</time>
      </trkpt>
      <trkpt lat="44.84258" lon="3.49723">
        <ele>1230</ele>
        <time>2009-07-12T13:57:50Z</time>
      </trkpt>
      <trkpt lat="44.84242" lon="3.49691">
        <ele>1229</ele>
        <time>2009-07-12T13:58:01Z</time>
      </trkpt>
      <trkpt lat="44.84225" lon="3.49652">
        <ele>1228</ele>
        <time>2009-07-12T13:58:12Z</time>
      </trkpt>
      <trkpt lat="44.84206" lon="3.49611">
        <ele>1231</ele>
        <time>2009-07-12T13:58:23Z</time>
      </trkpt>
      <trkpt lat="44.84179" lon="3.49574">
        <ele>1233</ele>
        <time>2009-07-12T13:58:38Z</time>
      </trkpt>
      <trkpt lat="44.84165" lon="3.49546">
        <ele>1235</ele>
        <time>2009-07-12T13:58:48Z</time>
      </trkpt>
      <trkpt lat="44.84156" lon="3.49524">
        <ele>1235</ele>
        <time>2009-07-12T13:58:55Z</time>
      </trkpt>
      <trkpt lat="44.8413" lon="3.49512">
        <ele>1238</ele>
        <time>2009-07-12T13:59:09Z</time>
      </trkpt>
      <trkpt lat="44.84117" lon="3.49515">
        <ele>1241</ele>
        <time>2009-07-12T13:59:18Z</time>
      </trkpt>
      <trkpt lat="44.84103" lon="3.49516">
        <ele>1244</ele>
        <time>2009-07-12T13:59:28Z</time>
      </trkpt>
      <trkpt lat="44.84092" lon="3.49521">
        <ele>1247</ele>
        <time>2009-07-12T13:59:38Z</time>
      </trkpt>
      <trkpt lat="44.84067" lon="3.49522">
        <ele>1249</ele>
        <time>2009-07-12T13:59:54Z</time>
      </trkpt>
      <trkpt lat="44.84053" lon="3.49534">
        <ele>1252</ele>
        <time>2009-07-12T14:00:05Z</time>
      </trkpt>
      <trkpt lat="44.8404" lon="3.4954">
        <ele>1254</ele>
        <time>2009-07-12T14:00:16Z</time>
      </trkpt>
      <trkpt lat="44.84037" lon="3.49542">
        <ele>1255</ele>
        <time>2009-07-12T14:00:18Z</time>
      </trkpt>
      <trkpt lat="44.84017" lon="3.49558">
        <ele>1258</ele>
        <time>2009-07-12T14:00:33Z</time>
      </trkpt>
      <trkpt lat="44.84016" lon="3.49559">
        <ele>1258</ele>
        <time>2009-07-12T14:00:34Z</time>
      </trkpt>
      <trkpt lat="44.84007" lon="3.49563">
        <ele>1260</ele>
        <time>2009-07-12T14:00:40Z</time>
      </trkpt>
      <trkpt lat="44.83996" lon="3.49563">
        <ele>1261</ele>
        <time>2009-07-12T14:00:47Z</time>
      </trkpt>
      <trkpt lat="44.83966" lon="3.49564">
        <ele>1264</ele>
        <time>2009-07-12T14:01:03Z</time>
      </trkpt>
      <trkpt lat="44.83936" lon="3.49554">
        <ele>1265</ele>
        <time>2009-07-12T14:01:17Z</time>
      </trkpt>
      <trkpt lat="44.8391" lon="3.4955">
        <ele>1269</ele>
        <time>2009-07-12T14:01:29Z</time>
      </trkpt>
      <trkpt lat="44.83889" lon="3.49545">
        <ele>1270</ele>
        <time>2009-07-12T14:01:41Z</time>
      </trkpt>
      <trkpt lat="44.83883" lon="3.4955">
        <ele>1271</ele>
        <time>2009-07-12T14:01:45Z</time>
      </trkpt>
      <trkpt lat="44.83861" lon="3.49564">
        <ele>1275</ele>
        <time>2009-07-12T14:02:00Z</time>
      </trkpt>
      <trkpt lat="44.83837" lon="3.49565">
        <ele>1276</ele>
        <time>2009-07-12T14:02:14Z</time>
      </trkpt>
      <trkpt lat="44.8381" lon="3.49568">
        <ele>1279</ele>
        <time>2009-07-12T14:02:29Z</time>
      </trkpt>
      <trkpt lat="44.83776" lon="3.49573">
        <ele>1282</ele>
        <time>2009-07-12T14:02:45Z</time>
      </trkpt>
      <trkpt lat="44.83773" lon="3.49574">
        <ele>1282</ele>
        <time>2009-07-12T14:02:47Z</time>
      </trkpt>
      <trkpt lat="44.83761" lon="3.49575">
        <ele>1284</ele>
        <time>2009-07-12T14:02:53Z</time>
      </trkpt>
      <trkpt lat="44.83759" lon="3.49575">
        <ele>1283</ele>
        <time>2009-07-12T14:02:54Z</time>
      </trkpt>
      <trkpt lat="44.83751" lon="3.49572">
        <ele>1284</ele>
        <time>2009-07-12T14:02:58Z</time>
      </trkpt>
      <trkpt lat="44.83742" lon="3.49574">
        <ele>1285</ele>
        <time>2009-07-12T14:03:02Z</time>
      </trkpt>
      <trkpt lat="44.83706" lon="3.49567">
        <ele>1287</ele>
        <time>2009-07-12T14:03:18Z</time>
      </trkpt>
      <trkpt lat="44.83667" lon="3.4956">
        <ele>1288</ele>
        <time>2009-07-12T14:03:32Z</time>
      </trkpt>
      <trkpt lat="44.8363" lon="3.49554">
        <ele>1290</ele>
        <time>2009-07-12T14:03:46Z</time>
      </trkpt>
      <trkpt lat="44.83585" lon="3.49545">
        <ele>1291</ele>
        <time>2009-07-12T14:04:03Z</time>
      </trkpt>
      <trkpt lat="44.83544" lon="3.49543">
        <ele>1293</ele>
        <time>2009-07-12T14:04:18Z</time>
      </trkpt>
      <trkpt lat="44.83522" lon="3.49551">
        <ele>1295</ele>
        <time>2009-07-12T14:04:31Z</time>
      </trkpt>
      <trkpt lat="44.83519" lon="3.49558">
        <ele>1295</ele>
        <time>2009-07-12T14:04:45Z</time>
      </trkpt>
      <trkpt lat="44.83519" lon="3.49562">
        <ele>1295</ele>
        <time>2009-07-12T14:05:05Z</time>
      </trkpt>
      <trkpt lat="44.83518" lon="3.49563">
        <ele>1296</ele>
        <time>2009-07-12T14:05:22Z</time>
      </trkpt>
      <trkpt lat="44.83519" lon="3.49563">
        <ele>1296</ele>
        <time>2009-07-12T14:06:14Z</time>
      </trkpt>
      <trkpt lat="44.83519" lon="3.49565">
        <ele>1296</ele>
        <time>2009-07-12T14:06:44Z</time>
      </trkpt>
      <trkpt lat="44.83519" lon="3.49565">
        <ele>1297</ele>
        <time>2009-07-12T14:07:22Z</time>
      </trkpt>
      <trkpt lat="44.83517" lon="3.49576">
        <ele>1297</ele>
        <time>2009-07-12T14:07:28Z</time>
      </trkpt>
      <trkpt lat="44.83517" lon="3.49599">
        <ele>1299</ele>
        <time>2009-07-12T14:07:38Z</time>
      </trkpt>
      <trkpt lat="44.83516" lon="3.49606">
        <ele>1300</ele>
        <time>2009-07-12T14:07:41Z</time>
      </trkpt>
      <trkpt lat="44.83514" lon="3.49629">
        <ele>1304</ele>
        <time>2009-07-12T14:07:51Z</time>
      </trkpt>
      <trkpt lat="44.83514" lon="3.49632">
        <ele>1304</ele>
        <time>2009-07-12T14:07:52Z</time>
      </trkpt>
      <trkpt lat="44.83511" lon="3.49669">
        <ele>1307</ele>
        <time>2009-07-12T14:08:09Z</time>
      </trkpt>
      <trkpt lat="44.8351" lon="3.497">
        <ele>1309</ele>
        <time>2009-07-12T14:08:23Z</time>
      </trkpt>
      <trkpt lat="44.83507" lon="3.49722">
        <ele>1312</ele>
        <time>2009-07-12T14:08:34Z</time>
      </trkpt>
      <trkpt lat="44.83508" lon="3.49724">
        <ele>1313</ele>
        <time>2009-07-12T14:08:35Z</time>
      </trkpt>
      <trkpt lat="44.83506" lon="3.49732">
        <ele>1314</ele>
        <time>2009-07-12T14:08:39Z</time>
      </trkpt>
      <trkpt lat="44.83506" lon="3.49736">
        <ele>1315</ele>
        <time>2009-07-12T14:08:41Z</time>
      </trkpt>
      <trkpt lat="44.83494" lon="3.49751">
        <ele>1316</ele>
        <time>2009-07-12T14:08:52Z</time>
      </trkpt>
      <trkpt lat="44.83466" lon="3.49751">
        <ele>1316</ele>
        <time>2009-07-12T14:09:06Z</time>
      </trkpt>
      <trkpt lat="44.83455" lon="3.49748">
        <ele>1316</ele>
        <time>2009-07-12T14:09:09Z</time>
      </trkpt>
      <trkpt lat="44.83443" lon="3.49744">
        <ele>1315</ele>
        <time>2009-07-12T14:09:12Z</time>
      </trkpt>
      <trkpt lat="44.83412" lon="3.49734">
        <ele>1314</ele>
        <time>2009-07-12T14:09:18Z</time>
      </trkpt>
      <trkpt lat="44.83372" lon="3.49719">
        <ele>1312</ele>
        <time>2009-07-12T14:09:26Z</time>
      </trkpt>
      <trkpt lat="44.83336" lon="3.49707">
        <ele>1313</ele>
        <time>2009-07-12T14:09:35Z</time>
      </trkpt>
      <trkpt lat="44.83301" lon="3.49698">
        <ele>1316</ele>
        <time>2009-07-12T14:09:45Z</time>
      </trkpt>
      <trkpt lat="44.83266" lon="3.49687">
        <ele>1317</ele>
        <time>2009-07-12T14:09:57Z</time>
      </trkpt>
      <trkpt lat="44.83227" lon="3.49676">
        <ele>1319</ele>
        <time>2009-07-12T14:10:11Z</time>
      </trkpt>
      <trkpt lat="44.83201" lon="3.49669">
        <ele>1320</ele>
        <time>2009-07-12T14:10:20Z</time>
      </trkpt>
      <trkpt lat="44.83161" lon="3.49653">
        <ele>1319</ele>
        <time>2009-07-12T14:10:33Z</time>
      </trkpt>
      <trkpt lat="44.83117" lon="3.49642">
        <ele>1320</ele>
        <time>2009-07-12T14:10:45Z</time>
      </trkpt>
      <trkpt lat="44.83052" lon="3.49622">
        <ele>1322</ele>
        <time>2009-07-12T14:11:03Z</time>
      </trkpt>
      <trkpt lat="44.83007" lon="3.49609">
        <ele>1324</ele>
        <time>2009-07-12T14:11:17Z</time>
      </trkpt>
      <trkpt lat="44.83001" lon="3.49607">
        <ele>1324</ele>
        <time>2009-07-12T14:11:28Z</time>
      </trkpt>
      <trkpt lat="44.83001" lon="3.49607">
        <ele>1322</ele>
        <time>2009-07-12T14:11:33Z</time>
      </trkpt>
      <trkpt lat="44.83001" lon="3.49608">
        <ele>1324</ele>
        <time>2009-07-12T14:12:00Z</time>
      </trkpt>
      <trkpt lat="44.83001" lon="3.49608">
        <ele>1322</ele>
        <time>2009-07-12T14:12:11Z</time>
      </trkpt>
      <trkpt lat="44.83002" lon="3.49596">
        <ele>1321</ele>
        <time>2009-07-12T14:12:16Z</time>
      </trkpt>
      <trkpt lat="44.83011" lon="3.49586">
        <ele>1320</ele>
        <time>2009-07-12T14:12:19Z</time>
      </trkpt>
      <trkpt lat="44.83046" lon="3.4956">
        <ele>1318</ele>
        <time>2009-07-12T14:12:27Z</time>
      </trkpt>
      <trkpt lat="44.83068" lon="3.49526">
        <ele>1318</ele>
        <time>2009-07-12T14:12:33Z</time>
      </trkpt>
      <trkpt lat="44.83077" lon="3.49495">
        <ele>1316</ele>
        <time>2009-07-12T14:12:37Z</time>
      </trkpt>
      <trkpt lat="44.83085" lon="3.49423">
        <ele>1315</ele>
        <time>2009-07-12T14:12:46Z</time>
      </trkpt>
      <trkpt lat="44.83082" lon="3.49397">
        <ele>1313</ele>
        <time>2009-07-12T14:12:49Z</time>
      </trkpt>
      <trkpt lat="44.8308" lon="3.49389">
        <ele>1313</ele>
        <time>2009-07-12T14:12:50Z</time>
      </trkpt>
      <trkpt lat="44.83051" lon="3.49326">
        <ele>1311</ele>
        <time>2009-07-12T14:12:58Z</time>
      </trkpt>
      <trkpt lat="44.83029" lon="3.49262">
        <ele>1307</ele>
        <time>2009-07-12T14:13:05Z</time>
      </trkpt>
      <trkpt lat="44.83021" lon="3.49243">
        <ele>1305</ele>
        <time>2009-07-12T14:13:07Z</time>
      </trkpt>
      <trkpt lat="44.83003" lon="3.49204">
        <ele>1299</ele>
        <time>2009-07-12T14:13:11Z</time>
      </trkpt>
      <trkpt lat="44.82998" lon="3.49194">
        <ele>1299</ele>
        <time>2009-07-12T14:13:12Z</time>
      </trkpt>
      <trkpt lat="44.82986" lon="3.49175">
        <ele>1296</ele>
        <time>2009-07-12T14:13:14Z</time>
      </trkpt>
      <trkpt lat="44.82965" lon="3.49147">
        <ele>1293</ele>
        <time>2009-07-12T14:13:17Z</time>
      </trkpt>
      <trkpt lat="44.82864" lon="3.4909">
        <ele>1292</ele>
        <time>2009-07-12T14:13:29Z</time>
      </trkpt>
      <trkpt lat="44.82815" lon="3.49069">
        <ele>1295</ele>
        <time>2009-07-12T14:13:38Z</time>
      </trkpt>
      <trkpt lat="44.82812" lon="3.49067">
        <ele>1295</ele>
        <time>2009-07-12T14:13:39Z</time>
      </trkpt>
      <trkpt lat="44.82799" lon="3.4906">
        <ele>1296</ele>
        <time>2009-07-12T14:13:43Z</time>
      </trkpt>
      <trkpt lat="44.82791" lon="3.49059">
        <ele>1299</ele>
        <time>2009-07-12T14:13:46Z</time>
      </trkpt>
      <trkpt lat="44.82762" lon="3.4908">
        <ele>1300</ele>
        <time>2009-07-12T14:13:59Z</time>
      </trkpt>
      <trkpt lat="44.82737" lon="3.49105">
        <ele>1303</ele>
        <time>2009-07-12T14:14:12Z</time>
      </trkpt>
      <trkpt lat="44.827" lon="3.49121">
        <ele>1303</ele>
        <time>2009-07-12T14:14:27Z</time>
      </trkpt>
      <trkpt lat="44.82645" lon="3.49104">
        <ele>1301</ele>
        <time>2009-07-12T14:14:43Z</time>
      </trkpt>
      <trkpt lat="44.82627" lon="3.49098">
        <ele>1300</ele>
        <time>2009-07-12T14:14:47Z</time>
      </trkpt>
      <trkpt lat="44.82609" lon="3.49089">
        <ele>1299</ele>
        <time>2009-07-12T14:14:51Z</time>
      </trkpt>
      <trkpt lat="44.8257" lon="3.49065">
        <ele>1298</ele>
        <time>2009-07-12T14:15:00Z</time>
      </trkpt>
      <trkpt lat="44.82505" lon="3.49028">
        <ele>1298</ele>
        <time>2009-07-12T14:15:16Z</time>
      </trkpt>
      <trkpt lat="44.82493" lon="3.49021">
        <ele>1298</ele>
        <time>2009-07-12T14:15:19Z</time>
      </trkpt>
      <trkpt lat="44.82467" lon="3.48991">
        <ele>1296</ele>
        <time>2009-07-12T14:15:28Z</time>
      </trkpt>
      <trkpt lat="44.82456" lon="3.4894">
        <ele>1299</ele>
        <time>2009-07-12T14:15:40Z</time>
      </trkpt>
      <trkpt lat="44.82449" lon="3.48873">
        <ele>1300</ele>
        <time>2009-07-12T14:15:54Z</time>
      </trkpt>
      <trkpt lat="44.82447" lon="3.48808">
        <ele>1299</ele>
        <time>2009-07-12T14:16:08Z</time>
      </trkpt>
      <trkpt lat="44.82446" lon="3.48767">
        <ele>1299</ele>
        <time>2009-07-12T14:16:20Z</time>
      </trkpt>
      <trkpt lat="44.82438" lon="3.48753">
        <ele>1298</ele>
        <time>2009-07-12T14:16:26Z</time>
      </trkpt>
      <trkpt lat="44.8242" lon="3.48745">
        <ele>1297</ele>
        <time>2009-07-12T14:16:37Z</time>
      </trkpt>
      <trkpt lat="44.82419" lon="3.48746">
        <ele>1298</ele>
        <time>2009-07-12T14:17:10Z</time>
      </trkpt>
      <trkpt lat="44.82419" lon="3.48747">
        <ele>1296</ele>
        <time>2009-07-12T14:17:37Z</time>
      </trkpt>
      <trkpt lat="44.82419" lon="3.48748">
        <ele>1297</ele>
        <time>2009-07-12T14:17:41Z</time>
      </trkpt>
      <trkpt lat="44.82411" lon="3.48752">
        <ele>1296</ele>
        <time>2009-07-12T14:17:46Z</time>
      </trkpt>
      <trkpt lat="44.82381" lon="3.48754">
        <ele>1295</ele>
        <time>2009-07-12T14:17:57Z</time>
      </trkpt>
      <trkpt lat="44.82363" lon="3.48758">
        <ele>1293</ele>
        <time>2009-07-12T14:18:01Z</time>
      </trkpt>
      <trkpt lat="44.82332" lon="3.48755">
        <ele>1293</ele>
        <time>2009-07-12T14:18:07Z</time>
      </trkpt>
      <trkpt lat="44.8231" lon="3.48746">
        <ele>1295</ele>
        <time>2009-07-12T14:18:13Z</time>
      </trkpt>
      <trkpt lat="44.82273" lon="3.4874">
        <ele>1298</ele>
        <time>2009-07-12T14:18:29Z</time>
      </trkpt>
      <trkpt lat="44.82248" lon="3.48732">
        <ele>1301</ele>
        <time>2009-07-12T14:18:43Z</time>
      </trkpt>
      <trkpt lat="44.82224" lon="3.48719">
        <ele>1304</ele>
        <time>2009-07-12T14:18:57Z</time>
      </trkpt>
      <trkpt lat="44.82223" lon="3.48718">
        <ele>1305</ele>
        <time>2009-07-12T14:18:58Z</time>
      </trkpt>
      <trkpt lat="44.82215" lon="3.4872">
        <ele>1306</ele>
        <time>2009-07-12T14:19:03Z</time>
      </trkpt>
      <trkpt lat="44.8221" lon="3.48719">
        <ele>1307</ele>
        <time>2009-07-12T14:19:07Z</time>
      </trkpt>
      <trkpt lat="44.82196" lon="3.48715">
        <ele>1309</ele>
        <time>2009-07-12T14:19:15Z</time>
      </trkpt>
      <trkpt lat="44.82168" lon="3.48709">
        <ele>1310</ele>
        <time>2009-07-12T14:19:29Z</time>
      </trkpt>
      <trkpt lat="44.82142" lon="3.48702">
        <ele>1312</ele>
        <time>2009-07-12T14:19:43Z</time>
      </trkpt>
      <trkpt lat="44.82112" lon="3.48679">
        <ele>1315</ele>
        <time>2009-07-12T14:20:01Z</time>
      </trkpt>
      <trkpt lat="44.82089" lon="3.48644">
        <ele>1318</ele>
        <time>2009-07-12T14:20:18Z</time>
      </trkpt>
      <trkpt lat="44.8207" lon="3.48609">
        <ele>1320</ele>
        <time>2009-07-12T14:20:35Z</time>
      </trkpt>
      <trkpt lat="44.82068" lon="3.48608">
        <ele>1321</ele>
        <time>2009-07-12T14:20:36Z</time>
      </trkpt>
      <trkpt lat="44.82041" lon="3.48563">
        <ele>1323</ele>
        <time>2009-07-12T14:20:58Z</time>
      </trkpt>
      <trkpt lat="44.82031" lon="3.48547">
        <ele>1323</ele>
        <time>2009-07-12T14:21:11Z</time>
      </trkpt>
      <trkpt lat="44.82029" lon="3.48545">
        <ele>1324</ele>
        <time>2009-07-12T14:21:29Z</time>
      </trkpt>
      <trkpt lat="44.82029" lon="3.4854">
        <ele>1324</ele>
        <time>2009-07-12T14:21:43Z</time>
      </trkpt>
      <trkpt lat="44.82023" lon="3.4854">
        <ele>1325</ele>
        <time>2009-07-12T14:22:34Z</time>
      </trkpt>
      <trkpt lat="44.82008" lon="3.48512">
        <ele>1327</ele>
        <time>2009-07-12T14:22:47Z</time>
      </trkpt>
      <trkpt lat="44.82005" lon="3.48508">
        <ele>1328</ele>
        <time>2009-07-12T14:22:49Z</time>
      </trkpt>
      <trkpt lat="44.8198" lon="3.48467">
        <ele>1330</ele>
        <time>2009-07-12T14:23:09Z</time>
      </trkpt>
      <trkpt lat="44.81959" lon="3.48435">
        <ele>1333</ele>
        <time>2009-07-12T14:23:26Z</time>
      </trkpt>
      <trkpt lat="44.81941" lon="3.48404">
        <ele>1334</ele>
        <time>2009-07-12T14:23:45Z</time>
      </trkpt>
      <trkpt lat="44.81925" lon="3.48377">
        <ele>1337</ele>
        <time>2009-07-12T14:24:03Z</time>
      </trkpt>
      <trkpt lat="44.8191" lon="3.48355">
        <ele>1341</ele>
        <time>2009-07-12T14:24:17Z</time>
      </trkpt>
      <trkpt lat="44.81909" lon="3.48353">
        <ele>1341</ele>
        <time>2009-07-12T14:24:19Z</time>
      </trkpt>
      <trkpt lat="44.81892" lon="3.48342">
        <ele>1345</ele>
        <time>2009-07-12T14:24:33Z</time>
      </trkpt>
      <trkpt lat="44.81871" lon="3.48331">
        <ele>1349</ele>
        <time>2009-07-12T14:24:48Z</time>
      </trkpt>
      <trkpt lat="44.81856" lon="3.48329">
        <ele>1351</ele>
        <time>2009-07-12T14:24:58Z</time>
      </trkpt>
      <trkpt lat="44.81855" lon="3.48326">
        <ele>1351</ele>
        <time>2009-07-12T14:25:09Z</time>
      </trkpt>
      <trkpt lat="44.81855" lon="3.48325">
        <ele>1351</ele>
        <time>2009-07-12T14:25:11Z</time>
      </trkpt>
      <trkpt lat="44.81861" lon="3.4831">
        <ele>1351</ele>
        <time>2009-07-12T14:25:27Z</time>
      </trkpt>
      <trkpt lat="44.81862" lon="3.48305">
        <ele>1351</ele>
        <time>2009-07-12T14:25:40Z</time>
      </trkpt>
      <trkpt lat="44.81872" lon="3.48289">
        <ele>1350</ele>
        <time>2009-07-12T14:26:00Z</time>
      </trkpt>
      <trkpt lat="44.81873" lon="3.48287">
        <ele>1350</ele>
        <time>2009-07-12T14:26:01Z</time>
      </trkpt>
      <trkpt lat="44.81875" lon="3.48277">
        <ele>1350</ele>
        <time>2009-07-12T14:26:06Z</time>
      </trkpt>
      <trkpt lat="44.81885" lon="3.4825">
        <ele>1349</ele>
        <time>2009-07-12T14:26:19Z</time>
      </trkpt>
      <trkpt lat="44.81889" lon="3.48233">
        <ele>1348</ele>
        <time>2009-07-12T14:26:26Z</time>
      </trkpt>
      <trkpt lat="44.81896" lon="3.48215">
        <ele>1348</ele>
        <time>2009-07-12T14:26:36Z</time>
      </trkpt>
      <trkpt lat="44.81897" lon="3.48212">
        <ele>1348</ele>
        <time>2009-07-12T14:26:37Z</time>
      </trkpt>
      <trkpt lat="44.81912" lon="3.4816">
        <ele>1347</ele>
        <time>2009-07-12T14:26:51Z</time>
      </trkpt>
      <trkpt lat="44.81918" lon="3.48135">
        <ele>1346</ele>
        <time>2009-07-12T14:27:00Z</time>
      </trkpt>
      <trkpt lat="44.81921" lon="3.48127">
        <ele>1345</ele>
        <time>2009-07-12T14:27:14Z</time>
      </trkpt>
      <trkpt lat="44.81927" lon="3.4812">
        <ele>1346</ele>
        <time>2009-07-12T14:27:48Z</time>
      </trkpt>
      <trkpt lat="44.81928" lon="3.48119">
        <ele>1346</ele>
        <time>2009-07-12T14:27:49Z</time>
      </trkpt>
      <trkpt lat="44.8193" lon="3.48109">
        <ele>1345</ele>
        <time>2009-07-12T14:28:01Z</time>
      </trkpt>
      <trkpt lat="44.8193" lon="3.48108">
        <ele>1344</ele>
        <time>2009-07-12T14:28:02Z</time>
      </trkpt>
      <trkpt lat="44.81933" lon="3.48101">
        <ele>1343</ele>
        <time>2009-07-12T14:28:06Z</time>
      </trkpt>
      <trkpt lat="44.81939" lon="3.48081">
        <ele>1342</ele>
        <time>2009-07-12T14:28:18Z</time>
      </trkpt>
      <trkpt lat="44.81946" lon="3.4806">
        <ele>1342</ele>
        <time>2009-07-12T14:28:29Z</time>
      </trkpt>
      <trkpt lat="44.81947" lon="3.48054">
        <ele>1342</ele>
        <time>2009-07-12T14:28:39Z</time>
      </trkpt>
      <trkpt lat="44.81949" lon="3.48045">
        <ele>1342</ele>
        <time>2009-07-12T14:28:48Z</time>
      </trkpt>
      <trkpt lat="44.81951" lon="3.4804">
        <ele>1343</ele>
        <time>2009-07-12T14:28:54Z</time>
      </trkpt>
      <trkpt lat="44.81953" lon="3.48034">
        <ele>1342</ele>
        <time>2009-07-12T14:28:57Z</time>
      </trkpt>
      <trkpt lat="44.81954" lon="3.48032">
        <ele>1342</ele>
        <time>2009-07-12T14:28:58Z</time>
      </trkpt>
      <trkpt lat="44.81957" lon="3.48021">
        <ele>1342</ele>
        <time>2009-07-12T14:29:02Z</time>
      </trkpt>
      <trkpt lat="44.81961" lon="3.48009">
        <ele>1341</ele>
        <time>2009-07-12T14:29:06Z</time>
      </trkpt>
      <trkpt lat="44.81963" lon="3.48004">
        <ele>1341</ele>
        <time>2009-07-12T14:29:08Z</time>
      </trkpt>
      <trkpt lat="44.81975" lon="3.48003">
        <ele>1340</ele>
        <time>2009-07-12T14:29:17Z</time>
      </trkpt>
      <trkpt lat="44.81975" lon="3.48002">
        <ele>1339</ele>
        <time>2009-07-12T14:29:57Z</time>
      </trkpt>
      <trkpt lat="44.81975" lon="3.48003">
        <ele>1338</ele>
        <time>2009-07-12T14:30:32Z</time>
      </trkpt>
      <trkpt lat="44.81978" lon="3.48003">
        <ele>1339</ele>
        <time>2009-07-12T14:31:17Z</time>
      </trkpt>
      <trkpt lat="44.81985" lon="3.48003">
        <ele>1339</ele>
        <time>2009-07-12T14:31:53Z</time>
      </trkpt>
      <trkpt lat="44.82014" lon="3.4802">
        <ele>1335</ele>
        <time>2009-07-12T14:32:01Z</time>
      </trkpt>
      <trkpt lat="44.82031" lon="3.48029">
        <ele>1332</ele>
        <time>2009-07-12T14:32:04Z</time>
      </trkpt>
      <trkpt lat="44.82052" lon="3.48023">
        <ele>1331</ele>
        <time>2009-07-12T14:32:08Z</time>
      </trkpt>
      <trkpt lat="44.8206" lon="3.48015">
        <ele>1331</ele>
        <time>2009-07-12T14:32:10Z</time>
      </trkpt>
      <trkpt lat="44.8207" lon="3.48011">
        <ele>1329</ele>
        <time>2009-07-12T14:32:12Z</time>
      </trkpt>
      <trkpt lat="44.82083" lon="3.48014">
        <ele>1326</ele>
        <time>2009-07-12T14:32:14Z</time>
      </trkpt>
      <trkpt lat="44.82102" lon="3.4802">
        <ele>1324</ele>
        <time>2009-07-12T14:32:17Z</time>
      </trkpt>
      <trkpt lat="44.82118" lon="3.48025">
        <ele>1322</ele>
        <time>2009-07-12T14:32:20Z</time>
      </trkpt>
      <trkpt lat="44.82137" lon="3.48038">
        <ele>1319</ele>
        <time>2009-07-12T14:32:25Z</time>
      </trkpt>
      <trkpt lat="44.82155" lon="3.48051">
        <ele>1315</ele>
        <time>2009-07-12T14:32:29Z</time>
      </trkpt>
      <trkpt lat="44.8216" lon="3.48056">
        <ele>1314</ele>
        <time>2009-07-12T14:32:30Z</time>
      </trkpt>
      <trkpt lat="44.82177" lon="3.48072">
        <ele>1310</ele>
        <time>2009-07-12T14:32:33Z</time>
      </trkpt>
      <trkpt lat="44.82182" lon="3.48077">
        <ele>1308</ele>
        <time>2009-07-12T14:32:34Z</time>
      </trkpt>
      <trkpt lat="44.82193" lon="3.48089">
        <ele>1306</ele>
        <time>2009-07-12T14:32:41Z</time>
      </trkpt>
      <trkpt lat="44.82193" lon="3.48089">
        <ele>1307</ele>
        <time>2009-07-12T14:32:53Z</time>
      </trkpt>
      <trkpt lat="44.82196" lon="3.48088">
        <ele>1305</ele>
        <time>2009-07-12T14:33:04Z</time>
      </trkpt>
      <trkpt lat="44.82199" lon="3.48087">
        <ele>1307</ele>
        <time>2009-07-12T14:33:47Z</time>
      </trkpt>
      <trkpt lat="44.82199" lon="3.48086">
        <ele>1305</ele>
        <time>2009-07-12T14:34:23Z</time>
      </trkpt>
      <trkpt lat="44.8221" lon="3.48062">
        <ele>1305</ele>
        <time>2009-07-12T14:34:40Z</time>
      </trkpt>
      <trkpt lat="44.82221" lon="3.48012">
        <ele>1306</ele>
        <time>2009-07-12T14:34:54Z</time>
      </trkpt>
      <trkpt lat="44.82228" lon="3.47959">
        <ele>1306</ele>
        <time>2009-07-12T14:35:06Z</time>
      </trkpt>
      <trkpt lat="44.82221" lon="3.47898">
        <ele>1307</ele>
        <time>2009-07-12T14:35:19Z</time>
      </trkpt>
      <trkpt lat="44.82221" lon="3.47828">
        <ele>1306</ele>
        <time>2009-07-12T14:35:32Z</time>
      </trkpt>
      <trkpt lat="44.82257" lon="3.47791">
        <ele>1308</ele>
        <time>2009-07-12T14:35:44Z</time>
      </trkpt>
      <trkpt lat="44.82301" lon="3.47744">
        <ele>1310</ele>
        <time>2009-07-12T14:35:59Z</time>
      </trkpt>
      <trkpt lat="44.8233" lon="3.47676">
        <ele>1312</ele>
        <time>2009-07-12T14:36:16Z</time>
      </trkpt>
      <trkpt lat="44.82333" lon="3.47601">
        <ele>1312</ele>
        <time>2009-07-12T14:36:31Z</time>
      </trkpt>
      <trkpt lat="44.82326" lon="3.47554">
        <ele>1314</ele>
        <time>2009-07-12T14:36:40Z</time>
      </trkpt>
      <trkpt lat="44.82326" lon="3.47541">
        <ele>1313</ele>
        <time>2009-07-12T14:36:42Z</time>
      </trkpt>
      <trkpt lat="44.82331" lon="3.47516">
        <ele>1312</ele>
        <time>2009-07-12T14:36:46Z</time>
      </trkpt>
      <trkpt lat="44.82337" lon="3.47497">
        <ele>1311</ele>
        <time>2009-07-12T14:36:49Z</time>
      </trkpt>
      <trkpt lat="44.82347" lon="3.47476">
        <ele>1312</ele>
        <time>2009-07-12T14:36:53Z</time>
      </trkpt>
      <trkpt lat="44.82379" lon="3.47433">
        <ele>1312</ele>
        <time>2009-07-12T14:37:04Z</time>
      </trkpt>
      <trkpt lat="44.82388" lon="3.47421">
        <ele>1313</ele>
        <time>2009-07-12T14:37:07Z</time>
      </trkpt>
      <trkpt lat="44.82401" lon="3.47397">
        <ele>1313</ele>
        <time>2009-07-12T14:37:12Z</time>
      </trkpt>
      <trkpt lat="44.82431" lon="3.47308">
        <ele>1316</ele>
        <time>2009-07-12T14:37:29Z</time>
      </trkpt>
      <trkpt lat="44.8245" lon="3.47248">
        <ele>1320</ele>
        <time>2009-07-12T14:37:42Z</time>
      </trkpt>
      <trkpt lat="44.82482" lon="3.47199">
        <ele>1323</ele>
        <time>2009-07-12T14:37:59Z</time>
      </trkpt>
      <trkpt lat="44.82515" lon="3.47175">
        <ele>1325</ele>
        <time>2009-07-12T14:38:13Z</time>
      </trkpt>
      <trkpt lat="44.82522" lon="3.47171">
        <ele>1327</ele>
        <time>2009-07-12T14:38:16Z</time>
      </trkpt>
      <trkpt lat="44.82551" lon="3.47133">
        <ele>1328</ele>
        <time>2009-07-12T14:38:29Z</time>
      </trkpt>
      <trkpt lat="44.82588" lon="3.47073">
        <ele>1328</ele>
        <time>2009-07-12T14:38:44Z</time>
      </trkpt>
      <trkpt lat="44.82595" lon="3.47058">
        <ele>1328</ele>
        <time>2009-07-12T14:38:47Z</time>
      </trkpt>
      <trkpt lat="44.82627" lon="3.46962">
        <ele>1324</ele>
        <time>2009-07-12T14:39:01Z</time>
      </trkpt>
      <trkpt lat="44.82646" lon="3.46859">
        <ele>1324</ele>
        <time>2009-07-12T14:39:13Z</time>
      </trkpt>
      <trkpt lat="44.82657" lon="3.46771">
        <ele>1322</ele>
        <time>2009-07-12T14:39:23Z</time>
      </trkpt>
      <trkpt lat="44.82669" lon="3.46731">
        <ele>1321</ele>
        <time>2009-07-12T14:39:28Z</time>
      </trkpt>
      <trkpt lat="44.82692" lon="3.46703">
        <ele>1319</ele>
        <time>2009-07-12T14:39:33Z</time>
      </trkpt>
      <trkpt lat="44.82776" lon="3.4665">
        <ele>1317</ele>
        <time>2009-07-12T14:39:49Z</time>
      </trkpt>
      <trkpt lat="44.82828" lon="3.46613">
        <ele>1314</ele>
        <time>2009-07-12T14:39:58Z</time>
      </trkpt>
      <trkpt lat="44.82875" lon="3.46617">
        <ele>1312</ele>
        <time>2009-07-12T14:40:05Z</time>
      </trkpt>
      <trkpt lat="44.82972" lon="3.46698">
        <ele>1312</ele>
        <time>2009-07-12T14:40:23Z</time>
      </trkpt>
      <trkpt lat="44.83021" lon="3.46718">
        <ele>1312</ele>
        <time>2009-07-12T14:40:32Z</time>
      </trkpt>
      <trkpt lat="44.83033" lon="3.46718">
        <ele>1312</ele>
        <time>2009-07-12T14:40:34Z</time>
      </trkpt>
      <trkpt lat="44.83052" lon="3.46714">
        <ele>1311</ele>
        <time>2009-07-12T14:40:37Z</time>
      </trkpt>
      <trkpt lat="44.83073" lon="3.46701">
        <ele>1312</ele>
        <time>2009-07-12T14:40:41Z</time>
      </trkpt>
      <trkpt lat="44.83095" lon="3.46673">
        <ele>1310</ele>
        <time>2009-07-12T14:40:46Z</time>
      </trkpt>
      <trkpt lat="44.83107" lon="3.46646">
        <ele>1311</ele>
        <time>2009-07-12T14:40:50Z</time>
      </trkpt>
      <trkpt lat="44.83122" lon="3.46586">
        <ele>1313</ele>
        <time>2009-07-12T14:40:58Z</time>
      </trkpt>
      <trkpt lat="44.83129" lon="3.46553">
        <ele>1311</ele>
        <time>2009-07-12T14:41:02Z</time>
      </trkpt>
      <trkpt lat="44.83151" lon="3.46476">
        <ele>1310</ele>
        <time>2009-07-12T14:41:12Z</time>
      </trkpt>
      <trkpt lat="44.83156" lon="3.46444">
        <ele>1310</ele>
        <time>2009-07-12T14:41:16Z</time>
      </trkpt>
      <trkpt lat="44.83164" lon="3.46378">
        <ele>1308</ele>
        <time>2009-07-12T14:41:24Z</time>
      </trkpt>
      <trkpt lat="44.83166" lon="3.46274">
        <ele>1309</ele>
        <time>2009-07-12T14:41:37Z</time>
      </trkpt>
      <trkpt lat="44.83172" lon="3.46246">
        <ele>1309</ele>
        <time>2009-07-12T14:41:41Z</time>
      </trkpt>
      <trkpt lat="44.83174" lon="3.46227">
        <ele>1309</ele>
        <time>2009-07-12T14:41:44Z</time>
      </trkpt>
      <trkpt lat="44.83173" lon="3.46214">
        <ele>1308</ele>
        <time>2009-07-12T14:41:46Z</time>
      </trkpt>
      <trkpt lat="44.83167" lon="3.46195">
        <ele>1309</ele>
        <time>2009-07-12T14:41:49Z</time>
      </trkpt>
      <trkpt lat="44.83162" lon="3.46183">
        <ele>1307</ele>
        <time>2009-07-12T14:41:51Z</time>
      </trkpt>
      <trkpt lat="44.83142" lon="3.4614">
        <ele>1309</ele>
        <time>2009-07-12T14:41:58Z</time>
      </trkpt>
      <trkpt lat="44.8311" lon="3.46049">
        <ele>1308</ele>
        <time>2009-07-12T14:42:12Z</time>
      </trkpt>
      <trkpt lat="44.83089" lon="3.45953">
        <ele>1305</ele>
        <time>2009-07-12T14:42:24Z</time>
      </trkpt>
      <trkpt lat="44.83077" lon="3.459">
        <ele>1301</ele>
        <time>2009-07-12T14:42:30Z</time>
      </trkpt>
      <trkpt lat="44.83061" lon="3.45843">
        <ele>1300</ele>
        <time>2009-07-12T14:42:36Z</time>
      </trkpt>
      <trkpt lat="44.83053" lon="3.4581">
        <ele>1297</ele>
        <time>2009-07-12T14:42:39Z</time>
      </trkpt>
      <trkpt lat="44.83048" lon="3.45746">
        <ele>1298</ele>
        <time>2009-07-12T14:42:45Z</time>
      </trkpt>
      <trkpt lat="44.83041" lon="3.4571">
        <ele>1299</ele>
        <time>2009-07-12T14:42:49Z</time>
      </trkpt>
      <trkpt lat="44.83024" lon="3.45674">
        <ele>1300</ele>
        <time>2009-07-12T14:42:54Z</time>
      </trkpt>
      <trkpt lat="44.82946" lon="3.45623">
        <ele>1299</ele>
        <time>2009-07-12T14:43:08Z</time>
      </trkpt>
      <trkpt lat="44.82916" lon="3.45613">
        <ele>1298</ele>
        <time>2009-07-12T14:43:13Z</time>
      </trkpt>
      <trkpt lat="44.82894" lon="3.45597">
        <ele>1298</ele>
        <time>2009-07-12T14:43:17Z</time>
      </trkpt>
      <trkpt lat="44.82879" lon="3.45582">
        <ele>1298</ele>
        <time>2009-07-12T14:43:20Z</time>
      </trkpt>
      <trkpt lat="44.82864" lon="3.45559">
        <ele>1299</ele>
        <time>2009-07-12T14:43:24Z</time>
      </trkpt>
      <trkpt lat="44.82842" lon="3.45548">
        <ele>1299</ele>
        <time>2009-07-12T14:43:29Z</time>
      </trkpt>
      <trkpt lat="44.82819" lon="3.45552">
        <ele>1294</ele>
        <time>2009-07-12T14:43:33Z</time>
      </trkpt>
      <trkpt lat="44.828" lon="3.45551">
        <ele>1292</ele>
        <time>2009-07-12T14:43:36Z</time>
      </trkpt>
      <trkpt lat="44.82795" lon="3.45547">
        <ele>1290</ele>
        <time>2009-07-12T14:43:37Z</time>
      </trkpt>
      <trkpt lat="44.82771" lon="3.45519">
        <ele>1290</ele>
        <time>2009-07-12T14:43:42Z</time>
      </trkpt>
      <trkpt lat="44.82757" lon="3.45502">
        <ele>1290</ele>
        <time>2009-07-12T14:43:45Z</time>
      </trkpt>
      <trkpt lat="44.82742" lon="3.45474">
        <ele>1289</ele>
        <time>2009-07-12T14:43:49Z</time>
      </trkpt>
      <trkpt lat="44.82731" lon="3.45451">
        <ele>1290</ele>
        <time>2009-07-12T14:43:57Z</time>
      </trkpt>
      <trkpt lat="44.82733" lon="3.45452">
        <ele>1290</ele>
        <time>2009-07-12T14:44:32Z</time>
      </trkpt>
      <trkpt lat="44.82733" lon="3.45448">
        <ele>1290</ele>
        <time>2009-07-12T14:45:21Z</time>
      </trkpt>
      <trkpt lat="44.82721" lon="3.45408">
        <ele>1286</ele>
        <time>2009-07-12T14:45:29Z</time>
      </trkpt>
      <trkpt lat="44.82716" lon="3.45393">
        <ele>1286</ele>
        <time>2009-07-12T14:45:31Z</time>
      </trkpt>
      <trkpt lat="44.8271" lon="3.45378">
        <ele>1285</ele>
        <time>2009-07-12T14:45:33Z</time>
      </trkpt>
      <trkpt lat="44.82699" lon="3.45348">
        <ele>1282</ele>
        <time>2009-07-12T14:45:40Z</time>
      </trkpt>
      <trkpt lat="44.82694" lon="3.45343">
        <ele>1281</ele>
        <time>2009-07-12T14:45:42Z</time>
      </trkpt>
      <trkpt lat="44.82688" lon="3.45335">
        <ele>1279</ele>
        <time>2009-07-12T14:45:44Z</time>
      </trkpt>
      <trkpt lat="44.82673" lon="3.45317">
        <ele>1275</ele>
        <time>2009-07-12T14:45:48Z</time>
      </trkpt>
      <trkpt lat="44.82668" lon="3.45312">
        <ele>1273</ele>
        <time>2009-07-12T14:45:49Z</time>
      </trkpt>
      <trkpt lat="44.82656" lon="3.45294">
        <ele>1271</ele>
        <time>2009-07-12T14:45:52Z</time>
      </trkpt>
      <trkpt lat="44.82647" lon="3.45284">
        <ele>1269</ele>
        <time>2009-07-12T14:45:54Z</time>
      </trkpt>
      <trkpt lat="44.82637" lon="3.4527">
        <ele>1268</ele>
        <time>2009-07-12T14:45:56Z</time>
      </trkpt>
      <trkpt lat="44.82627" lon="3.4524">
        <ele>1267</ele>
        <time>2009-07-12T14:46:00Z</time>
      </trkpt>
      <trkpt lat="44.82613" lon="3.45201">
        <ele>1266</ele>
        <time>2009-07-12T14:46:10Z</time>
      </trkpt>
      <trkpt lat="44.82605" lon="3.45159">
        <ele>1266</ele>
        <time>2009-07-12T14:46:21Z</time>
      </trkpt>
      <trkpt lat="44.82604" lon="3.45152">
        <ele>1267</ele>
        <time>2009-07-12T14:46:23Z</time>
      </trkpt>
      <trkpt lat="44.8259" lon="3.45143">
        <ele>1266</ele>
        <time>2009-07-12T14:46:28Z</time>
      </trkpt>
      <trkpt lat="44.82571" lon="3.45132">
        <ele>1263</ele>
        <time>2009-07-12T14:46:32Z</time>
      </trkpt>
      <trkpt lat="44.82557" lon="3.45118">
        <ele>1262</ele>
        <time>2009-07-12T14:46:35Z</time>
      </trkpt>
      <trkpt lat="44.82542" lon="3.45108">
        <ele>1262</ele>
        <time>2009-07-12T14:46:38Z</time>
      </trkpt>
      <trkpt lat="44.82518" lon="3.45087">
        <ele>1261</ele>
        <time>2009-07-12T14:46:43Z</time>
      </trkpt>
      <trkpt lat="44.82508" lon="3.4508">
        <ele>1260</ele>
        <time>2009-07-12T14:46:45Z</time>
      </trkpt>
      <trkpt lat="44.82472" lon="3.45055">
        <ele>1258</ele>
        <time>2009-07-12T14:46:53Z</time>
      </trkpt>
      <trkpt lat="44.82467" lon="3.4505">
        <ele>1257</ele>
        <time>2009-07-12T14:46:54Z</time>
      </trkpt>
      <trkpt lat="44.8245" lon="3.45027">
        <ele>1256</ele>
        <time>2009-07-12T14:46:58Z</time>
      </trkpt>
      <trkpt lat="44.82442" lon="3.45003">
        <ele>1256</ele>
        <time>2009-07-12T14:47:03Z</time>
      </trkpt>
      <trkpt lat="44.82436" lon="3.44981">
        <ele>1253</ele>
        <time>2009-07-12T14:47:07Z</time>
      </trkpt>
      <trkpt lat="44.82438" lon="3.44961">
        <ele>1250</ele>
        <time>2009-07-12T14:47:10Z</time>
      </trkpt>
      <trkpt lat="44.82442" lon="3.4491">
        <ele>1249</ele>
        <time>2009-07-12T14:47:20Z</time>
      </trkpt>
      <trkpt lat="44.8245" lon="3.44879">
        <ele>1246</ele>
        <time>2009-07-12T14:47:29Z</time>
      </trkpt>
      <trkpt lat="44.82454" lon="3.44871">
        <ele>1246</ele>
        <time>2009-07-12T14:47:31Z</time>
      </trkpt>
      <trkpt lat="44.82467" lon="3.44839">
        <ele>1245</ele>
        <time>2009-07-12T14:47:37Z</time>
      </trkpt>
      <trkpt lat="44.82464" lon="3.44779">
        <ele>1244</ele>
        <time>2009-07-12T14:47:46Z</time>
      </trkpt>
      <trkpt lat="44.8245" lon="3.44744">
        <ele>1243</ele>
        <time>2009-07-12T14:47:52Z</time>
      </trkpt>
      <trkpt lat="44.82428" lon="3.44718">
        <ele>1243</ele>
        <time>2009-07-12T14:47:58Z</time>
      </trkpt>
      <trkpt lat="44.8241" lon="3.44679">
        <ele>1239</ele>
        <time>2009-07-12T14:48:04Z</time>
      </trkpt>
      <trkpt lat="44.82407" lon="3.44671">
        <ele>1239</ele>
        <time>2009-07-12T14:48:05Z</time>
      </trkpt>
      <trkpt lat="44.82383" lon="3.44616">
        <ele>1237</ele>
        <time>2009-07-12T14:48:12Z</time>
      </trkpt>
      <trkpt lat="44.82364" lon="3.44596">
        <ele>1238</ele>
        <time>2009-07-12T14:48:16Z</time>
      </trkpt>
      <trkpt lat="44.82326" lon="3.44578">
        <ele>1240</ele>
        <time>2009-07-12T14:48:23Z</time>
      </trkpt>
      <trkpt lat="44.82317" lon="3.44574">
        <ele>1240</ele>
        <time>2009-07-12T14:48:25Z</time>
      </trkpt>
      <trkpt lat="44.82309" lon="3.44569">
        <ele>1242</ele>
        <time>2009-07-12T14:48:27Z</time>
      </trkpt>
      <trkpt lat="44.82267" lon="3.44533">
        <ele>1245</ele>
        <time>2009-07-12T14:48:39Z</time>
      </trkpt>
      <trkpt lat="44.82214" lon="3.44487">
        <ele>1244</ele>
        <time>2009-07-12T14:48:54Z</time>
      </trkpt>
      <trkpt lat="44.82186" lon="3.44449">
        <ele>1243</ele>
        <time>2009-07-12T14:49:07Z</time>
      </trkpt>
      <trkpt lat="44.8216" lon="3.44396">
        <ele>1242</ele>
        <time>2009-07-12T14:49:22Z</time>
      </trkpt>
      <trkpt lat="44.8216" lon="3.44396">
        <ele>1242</ele>
        <time>2009-07-12T14:49:45Z</time>
      </trkpt>
      <trkpt lat="44.8216" lon="3.44396">
        <ele>1242</ele>
        <time>2009-07-12T14:50:12Z</time>
      </trkpt>
      <trkpt lat="44.8216" lon="3.44397">
        <ele>1243</ele>
        <time>2009-07-12T14:50:44Z</time>
      </trkpt>
      <trkpt lat="44.82155" lon="3.44386">
        <ele>1243</ele>
        <time>2009-07-12T14:51:15Z</time>
      </trkpt>
      <trkpt lat="44.82137" lon="3.44351">
        <ele>1241</ele>
        <time>2009-07-12T14:51:23Z</time>
      </trkpt>
      <trkpt lat="44.82126" lon="3.4434">
        <ele>1241</ele>
        <time>2009-07-12T14:51:26Z</time>
      </trkpt>
      <trkpt lat="44.82114" lon="3.44327">
        <ele>1238</ele>
        <time>2009-07-12T14:51:29Z</time>
      </trkpt>
      <trkpt lat="44.82088" lon="3.44296">
        <ele>1238</ele>
        <time>2009-07-12T14:51:35Z</time>
      </trkpt>
      <trkpt lat="44.82063" lon="3.44263">
        <ele>1235</ele>
        <time>2009-07-12T14:51:41Z</time>
      </trkpt>
      <trkpt lat="44.8204" lon="3.44209">
        <ele>1230</ele>
        <time>2009-07-12T14:51:47Z</time>
      </trkpt>
      <trkpt lat="44.82025" lon="3.44182">
        <ele>1230</ele>
        <time>2009-07-12T14:51:50Z</time>
      </trkpt>
      <trkpt lat="44.82006" lon="3.44122">
        <ele>1226</ele>
        <time>2009-07-12T14:51:56Z</time>
      </trkpt>
      <trkpt lat="44.8199" lon="3.44068">
        <ele>1223</ele>
        <time>2009-07-12T14:52:01Z</time>
      </trkpt>
      <trkpt lat="44.81983" lon="3.44031">
        <ele>1221</ele>
        <time>2009-07-12T14:52:04Z</time>
      </trkpt>
      <trkpt lat="44.81981" lon="3.4402">
        <ele>1220</ele>
        <time>2009-07-12T14:52:05Z</time>
      </trkpt>
      <trkpt lat="44.81965" lon="3.43987">
        <ele>1216</ele>
        <time>2009-07-12T14:52:09Z</time>
      </trkpt>
      <trkpt lat="44.81959" lon="3.4398">
        <ele>1216</ele>
        <time>2009-07-12T14:52:10Z</time>
      </trkpt>
      <trkpt lat="44.81948" lon="3.43965">
        <ele>1214</ele>
        <time>2009-07-12T14:52:12Z</time>
      </trkpt>
      <trkpt lat="44.81935" lon="3.43948">
        <ele>1214</ele>
        <time>2009-07-12T14:52:15Z</time>
      </trkpt>
      <trkpt lat="44.81874" lon="3.43911">
        <ele>1213</ele>
        <time>2009-07-12T14:52:27Z</time>
      </trkpt>
      <trkpt lat="44.81864" lon="3.43902">
        <ele>1213</ele>
        <time>2009-07-12T14:52:29Z</time>
      </trkpt>
      <trkpt lat="44.81842" lon="3.43873">
        <ele>1211</ele>
        <time>2009-07-12T14:52:35Z</time>
      </trkpt>
      <trkpt lat="44.81822" lon="3.43843">
        <ele>1210</ele>
        <time>2009-07-12T14:52:41Z</time>
      </trkpt>
      <trkpt lat="44.81762" lon="3.43833">
        <ele>1209</ele>
        <time>2009-07-12T14:52:55Z</time>
      </trkpt>
      <trkpt lat="44.81741" lon="3.4383">
        <ele>1212</ele>
        <time>2009-07-12T14:53:00Z</time>
      </trkpt>
      <trkpt lat="44.81728" lon="3.43832">
        <ele>1212</ele>
        <time>2009-07-12T14:53:03Z</time>
      </trkpt>
      <trkpt lat="44.81698" lon="3.43841">
        <ele>1213</ele>
        <time>2009-07-12T14:53:10Z</time>
      </trkpt>
      <trkpt lat="44.81644" lon="3.43875">
        <ele>1209</ele>
        <time>2009-07-12T14:53:22Z</time>
      </trkpt>
      <trkpt lat="44.81621" lon="3.43895">
        <ele>1207</ele>
        <time>2009-07-12T14:53:27Z</time>
      </trkpt>
      <trkpt lat="44.81606" lon="3.4391">
        <ele>1205</ele>
        <time>2009-07-12T14:53:30Z</time>
      </trkpt>
      <trkpt lat="44.81592" lon="3.4393">
        <ele>1205</ele>
        <time>2009-07-12T14:53:34Z</time>
      </trkpt>
      <trkpt lat="44.81581" lon="3.43943">
        <ele>1203</ele>
        <time>2009-07-12T14:53:37Z</time>
      </trkpt>
      <trkpt lat="44.81562" lon="3.43971">
        <ele>1201</ele>
        <time>2009-07-12T14:53:42Z</time>
      </trkpt>
      <trkpt lat="44.81549" lon="3.43971">
        <ele>1199</ele>
        <time>2009-07-12T14:53:46Z</time>
      </trkpt>
      <trkpt lat="44.81532" lon="3.43964">
        <ele>1197</ele>
        <time>2009-07-12T14:53:49Z</time>
      </trkpt>
      <trkpt lat="44.81526" lon="3.43962">
        <ele>1195</ele>
        <time>2009-07-12T14:53:50Z</time>
      </trkpt>
      <trkpt lat="44.81505" lon="3.43962">
        <ele>1194</ele>
        <time>2009-07-12T14:53:53Z</time>
      </trkpt>
      <trkpt lat="44.8149" lon="3.43962">
        <ele>1191</ele>
        <time>2009-07-12T14:53:55Z</time>
      </trkpt>
      <trkpt lat="44.81483" lon="3.43979">
        <ele>1191</ele>
        <time>2009-07-12T14:54:01Z</time>
      </trkpt>
      <trkpt lat="44.81484" lon="3.43984">
        <ele>1191</ele>
        <time>2009-07-12T14:54:02Z</time>
      </trkpt>
      <trkpt lat="44.81496" lon="3.44061">
        <ele>1186</ele>
        <time>2009-07-12T14:54:11Z</time>
      </trkpt>
      <trkpt lat="44.81496" lon="3.44072">
        <ele>1186</ele>
        <time>2009-07-12T14:54:12Z</time>
      </trkpt>
      <trkpt lat="44.81492" lon="3.44111">
        <ele>1186</ele>
        <time>2009-07-12T14:54:19Z</time>
      </trkpt>
      <trkpt lat="44.81492" lon="3.44126">
        <ele>1185</ele>
        <time>2009-07-12T14:54:28Z</time>
      </trkpt>
      <trkpt lat="44.81482" lon="3.44128">
        <ele>1184</ele>
        <time>2009-07-12T14:54:38Z</time>
      </trkpt>
      <trkpt lat="44.81475" lon="3.44115">
        <ele>1184</ele>
        <time>2009-07-12T14:54:51Z</time>
      </trkpt>
      <trkpt lat="44.81476" lon="3.44114">
        <ele>1183</ele>
        <time>2009-07-12T14:55:24Z</time>
      </trkpt>
      <trkpt lat="44.81475" lon="3.44113">
        <ele>1181</ele>
        <time>2009-07-12T14:56:18Z</time>
      </trkpt>
    </trkseg>
  </trk>
</gpx>